<?xml version='1.0' encoding='UTF-8'?><gpx version="1.1" creator="JPX - https://github.com/jenetics/jpx" xmlns="http://www.topografix.com/GPX/1/1"><trk><trkseg><trkpt lat="42.1150697" lon="12.7728543"><ele>283.0</ele><time>2026-03-28T09:06:48.846Z</time></trkpt><trkpt lat="42.1151575" lon="12.7728926"><ele>283.0</ele><time>2026-03-28T09:06:59.843Z</time></trkpt><trkpt lat="42.1152658" lon="12.7729345"><ele>283.0</ele><time>2026-03-28T09:07:01.842Z</time></trkpt><trkpt lat="42.1153484" lon="12.7729393"><ele>283.0</ele><time>2026-03-28T09:07:02.857Z</time></trkpt><trkpt lat="42.1154404" lon="12.7729485"><ele>283.0</ele><time>2026-03-28T09:07:03.838Z</time></trkpt><trkpt lat="42.1155452" lon="12.7729556"><ele>283.0</ele><time>2026-03-28T09:07:04.855Z</time></trkpt><trkpt lat="42.1156392" lon="12.7729615"><ele>283.0</ele><time>2026-03-28T09:07:05.843Z</time></trkpt><trkpt lat="42.1157245" lon="12.7729609"><ele>283.0</ele><time>2026-03-28T09:07:06.854Z</time></trkpt><trkpt lat="42.1157952" lon="12.7729527"><ele>283.0</ele><time>2026-03-28T09:07:07.844Z</time></trkpt><trkpt lat="42.1158814" lon="12.7728879"><ele>283.0</ele><time>2026-03-28T09:07:09.846Z</time></trkpt><trkpt lat="42.1159198" lon="12.7728015"><ele>283.0</ele><time>2026-03-28T09:07:11.848Z</time></trkpt><trkpt lat="42.1159321" lon="12.7727165"><ele>284.0</ele><time>2026-03-28T09:07:13.855Z</time></trkpt><trkpt lat="42.1159209" lon="12.7726085"><ele>285.0</ele><time>2026-03-28T09:07:15.848Z</time></trkpt><trkpt lat="42.1158945" lon="12.7725286"><ele>286.0</ele><time>2026-03-28T09:07:16.839Z</time></trkpt><trkpt lat="42.1158481" lon="12.7724708"><ele>287.0</ele><time>2026-03-28T09:07:17.839Z</time></trkpt><trkpt lat="42.1158193" lon="12.7723902"><ele>288.0</ele><time>2026-03-28T09:07:18.844Z</time></trkpt><trkpt lat="42.1157738" lon="12.7723118"><ele>289.0</ele><time>2026-03-28T09:07:19.837Z</time></trkpt><trkpt lat="42.1157269" lon="12.7722454"><ele>290.0</ele><time>2026-03-28T09:07:20.838Z</time></trkpt><trkpt lat="42.115662" lon="12.7721224"><ele>290.0</ele><time>2026-03-28T09:07:22.843Z</time></trkpt><trkpt lat="42.1156261" lon="12.7720125"><ele>290.0</ele><time>2026-03-28T09:07:24.846Z</time></trkpt><trkpt lat="42.1155856" lon="12.7719472"><ele>290.0</ele><time>2026-03-28T09:07:26.848Z</time></trkpt><trkpt lat="42.1155473" lon="12.7718787"><ele>290.0</ele><time>2026-03-28T09:07:35.846Z</time></trkpt><trkpt lat="42.1154869" lon="12.7718002"><ele>290.0</ele><time>2026-03-28T09:07:39.856Z</time></trkpt><trkpt lat="42.1154145" lon="12.7717223"><ele>290.0</ele><time>2026-03-28T09:07:42.845Z</time></trkpt><trkpt lat="42.1153465" lon="12.7716656"><ele>289.8</ele><time>2026-03-28T09:07:45.848Z</time></trkpt><trkpt lat="42.1152713" lon="12.7715992"><ele>289.6</ele><time>2026-03-28T09:07:49.85Z</time></trkpt><trkpt lat="42.115201" lon="12.7715201"><ele>289.4</ele><time>2026-03-28T09:07:51.843Z</time></trkpt><trkpt lat="42.1151167" lon="12.7714327"><ele>289.2</ele><time>2026-03-28T09:07:53.849Z</time></trkpt><trkpt lat="42.1150359" lon="12.77135"><ele>289.0</ele><time>2026-03-28T09:07:55.842Z</time></trkpt><trkpt lat="42.1149638" lon="12.7712894"><ele>289.0</ele><time>2026-03-28T09:07:57.857Z</time></trkpt><trkpt lat="42.11492" lon="12.7712162"><ele>289.0</ele><time>2026-03-28T09:07:59.853Z</time></trkpt><trkpt lat="42.1149361" lon="12.7711058"><ele>289.0</ele><time>2026-03-28T09:08:01.846Z</time></trkpt><trkpt lat="42.1149903" lon="12.7710015"><ele>289.0</ele><time>2026-03-28T09:08:03.841Z</time></trkpt><trkpt lat="42.1150615" lon="12.7708817"><ele>289.0</ele><time>2026-03-28T09:08:05.836Z</time></trkpt><trkpt lat="42.1151264" lon="12.7707473"><ele>287.0</ele><time>2026-03-28T09:08:07.848Z</time></trkpt><trkpt lat="42.1151646" lon="12.7706776"><ele>285.0</ele><time>2026-03-28T09:08:08.845Z</time></trkpt><trkpt lat="42.1152003" lon="12.770604"><ele>283.0</ele><time>2026-03-28T09:08:09.851Z</time></trkpt><trkpt lat="42.1152351" lon="12.7705314"><ele>281.0</ele><time>2026-03-28T09:08:10.839Z</time></trkpt><trkpt lat="42.1152871" lon="12.7704668"><ele>279.0</ele><time>2026-03-28T09:08:11.848Z</time></trkpt><trkpt lat="42.1153492" lon="12.7704224"><ele>277.0</ele><time>2026-03-28T09:08:12.839Z</time></trkpt><trkpt lat="42.1154196" lon="12.7703917"><ele>275.0</ele><time>2026-03-28T09:08:13.846Z</time></trkpt><trkpt lat="42.1154914" lon="12.7703591"><ele>275.0</ele><time>2026-03-28T09:08:14.841Z</time></trkpt><trkpt lat="42.1155681" lon="12.7703196"><ele>275.0</ele><time>2026-03-28T09:08:15.838Z</time></trkpt><trkpt lat="42.1156353" lon="12.77029"><ele>275.0</ele><time>2026-03-28T09:08:16.838Z</time></trkpt><trkpt lat="42.1157066" lon="12.7702512"><ele>275.0</ele><time>2026-03-28T09:08:18.852Z</time></trkpt><trkpt lat="42.1157657" lon="12.770214"><ele>275.0</ele><time>2026-03-28T09:08:21.841Z</time></trkpt><trkpt lat="42.1158586" lon="12.7702633"><ele>275.0</ele><time>2026-03-28T09:08:23.842Z</time></trkpt><trkpt lat="42.1159232" lon="12.7703032"><ele>274.4</ele><time>2026-03-28T09:08:24.843Z</time></trkpt><trkpt lat="42.1159839" lon="12.7703352"><ele>273.8</ele><time>2026-03-28T09:08:25.849Z</time></trkpt><trkpt lat="42.1160842" lon="12.7703801"><ele>273.2</ele><time>2026-03-28T09:08:27.84Z</time></trkpt><trkpt lat="42.1161815" lon="12.7703418"><ele>272.6</ele><time>2026-03-28T09:08:29.845Z</time></trkpt><trkpt lat="42.1162464" lon="12.7702221"><ele>272.0</ele><time>2026-03-28T09:08:31.845Z</time></trkpt><trkpt lat="42.116269" lon="12.7700797"><ele>268.8</ele><time>2026-03-28T09:08:33.845Z</time></trkpt><trkpt lat="42.1162606" lon="12.7699063"><ele>265.6</ele><time>2026-03-28T09:08:35.846Z</time></trkpt><trkpt lat="42.1162358" lon="12.7698105"><ele>262.40000000000003</ele><time>2026-03-28T09:08:36.846Z</time></trkpt><trkpt lat="42.1162099" lon="12.7697237"><ele>259.2</ele><time>2026-03-28T09:08:37.847Z</time></trkpt><trkpt lat="42.1161787" lon="12.7696495"><ele>256.0</ele><time>2026-03-28T09:08:38.847Z</time></trkpt><trkpt lat="42.1161755" lon="12.7694936"><ele>256.0</ele><time>2026-03-28T09:08:40.85Z</time></trkpt><trkpt lat="42.1161854" lon="12.7694017"><ele>255.99999999999997</ele><time>2026-03-28T09:08:41.855Z</time></trkpt><trkpt lat="42.1162028" lon="12.7693123"><ele>256.0</ele><time>2026-03-28T09:08:42.839Z</time></trkpt><trkpt lat="42.1162296" lon="12.7692327"><ele>256.0</ele><time>2026-03-28T09:08:43.845Z</time></trkpt><trkpt lat="42.1162602" lon="12.7691438"><ele>255.99999999999997</ele><time>2026-03-28T09:08:44.834Z</time></trkpt><trkpt lat="42.1162882" lon="12.7690481"><ele>256.0</ele><time>2026-03-28T09:08:45.846Z</time></trkpt><trkpt lat="42.1163172" lon="12.7689497"><ele>256.0</ele><time>2026-03-28T09:08:46.843Z</time></trkpt><trkpt lat="42.1163437" lon="12.7688439"><ele>253.33333333333331</ele><time>2026-03-28T09:08:47.843Z</time></trkpt><trkpt lat="42.1163777" lon="12.768739"><ele>250.66666666666666</ele><time>2026-03-28T09:08:48.844Z</time></trkpt><trkpt lat="42.1164068" lon="12.7686285"><ele>248.0</ele><time>2026-03-28T09:08:49.847Z</time></trkpt><trkpt lat="42.1164324" lon="12.7685133"><ele>245.33333333333331</ele><time>2026-03-28T09:08:50.838Z</time></trkpt><trkpt lat="42.1164655" lon="12.7684008"><ele>242.66666666666666</ele><time>2026-03-28T09:08:51.842Z</time></trkpt><trkpt lat="42.1165031" lon="12.7682975"><ele>240.0</ele><time>2026-03-28T09:08:52.843Z</time></trkpt><trkpt lat="42.1165432" lon="12.7681972"><ele>239.5</ele><time>2026-03-28T09:08:53.843Z</time></trkpt><trkpt lat="42.1165894" lon="12.7681058"><ele>239.0</ele><time>2026-03-28T09:08:54.842Z</time></trkpt><trkpt lat="42.1166378" lon="12.7680181"><ele>238.5</ele><time>2026-03-28T09:08:55.848Z</time></trkpt><trkpt lat="42.1166969" lon="12.767939"><ele>238.0</ele><time>2026-03-28T09:08:56.846Z</time></trkpt><trkpt lat="42.1167694" lon="12.7678782"><ele>237.5</ele><time>2026-03-28T09:08:57.845Z</time></trkpt><trkpt lat="42.1168491" lon="12.767821"><ele>237.0</ele><time>2026-03-28T09:08:58.842Z</time></trkpt><trkpt lat="42.1169358" lon="12.7677646"><ele>237.0</ele><time>2026-03-28T09:08:59.844Z</time></trkpt><trkpt lat="42.1170263" lon="12.7677094"><ele>237.0</ele><time>2026-03-28T09:09:00.846Z</time></trkpt><trkpt lat="42.1171125" lon="12.7676505"><ele>237.0</ele><time>2026-03-28T09:09:01.836Z</time></trkpt><trkpt lat="42.1171949" lon="12.7675846"><ele>237.0</ele><time>2026-03-28T09:09:02.848Z</time></trkpt><trkpt lat="42.1172675" lon="12.7675053"><ele>237.0</ele><time>2026-03-28T09:09:03.842Z</time></trkpt><trkpt lat="42.1173353" lon="12.7674282"><ele>234.66666666666666</ele><time>2026-03-28T09:09:04.843Z</time></trkpt><trkpt lat="42.1173993" lon="12.7673383"><ele>232.33333333333331</ele><time>2026-03-28T09:09:05.848Z</time></trkpt><trkpt lat="42.117448" lon="12.7672616"><ele>230.0</ele><time>2026-03-28T09:09:06.843Z</time></trkpt><trkpt lat="42.1174864" lon="12.767194"><ele>227.66666666666666</ele><time>2026-03-28T09:09:07.847Z</time></trkpt><trkpt lat="42.1175538" lon="12.7671086"><ele>225.33333333333331</ele><time>2026-03-28T09:09:09.839Z</time></trkpt><trkpt lat="42.1176126" lon="12.7670719"><ele>223.0</ele><time>2026-03-28T09:09:11.842Z</time></trkpt><trkpt lat="42.1177174" lon="12.7670719"><ele>223.0</ele><time>2026-03-28T09:09:13.843Z</time></trkpt><trkpt lat="42.117795" lon="12.7670907"><ele>223.0</ele><time>2026-03-28T09:09:14.855Z</time></trkpt><trkpt lat="42.1178942" lon="12.7671102"><ele>223.0</ele><time>2026-03-28T09:09:15.851Z</time></trkpt><trkpt lat="42.118009" lon="12.7671329"><ele>223.0</ele><time>2026-03-28T09:09:16.84Z</time></trkpt><trkpt lat="42.1181242" lon="12.7671545"><ele>223.0</ele><time>2026-03-28T09:09:17.841Z</time></trkpt><trkpt lat="42.1182429" lon="12.7671744"><ele>222.5</ele><time>2026-03-28T09:09:18.84Z</time></trkpt><trkpt lat="42.1183703" lon="12.7671985"><ele>222.0</ele><time>2026-03-28T09:09:19.848Z</time></trkpt><trkpt lat="42.1184969" lon="12.7672266"><ele>221.5</ele><time>2026-03-28T09:09:20.843Z</time></trkpt><trkpt lat="42.1186095" lon="12.767278"><ele>221.0</ele><time>2026-03-28T09:09:21.854Z</time></trkpt><trkpt lat="42.118707" lon="12.7673667"><ele>221.0</ele><time>2026-03-28T09:09:22.844Z</time></trkpt><trkpt lat="42.1187857" lon="12.7674968"><ele>221.0</ele><time>2026-03-28T09:09:23.844Z</time></trkpt><trkpt lat="42.1188582" lon="12.7676575"><ele>221.0</ele><time>2026-03-28T09:09:24.851Z</time></trkpt><trkpt lat="42.1189201" lon="12.7678408"><ele>221.0</ele><time>2026-03-28T09:09:25.842Z</time></trkpt><trkpt lat="42.118982" lon="12.7680285"><ele>219.0</ele><time>2026-03-28T09:09:26.847Z</time></trkpt><trkpt lat="42.1190386" lon="12.7682286"><ele>217.0</ele><time>2026-03-28T09:09:27.843Z</time></trkpt><trkpt lat="42.1190875" lon="12.7684406"><ele>215.0</ele><time>2026-03-28T09:09:28.851Z</time></trkpt><trkpt lat="42.1191226" lon="12.7686616"><ele>219.33333333333334</ele><time>2026-03-28T09:09:29.843Z</time></trkpt><trkpt lat="42.1191534" lon="12.7688999"><ele>223.66666666666669</ele><time>2026-03-28T09:09:30.84Z</time></trkpt><trkpt lat="42.119169" lon="12.7691353"><ele>228.0</ele><time>2026-03-28T09:09:31.842Z</time></trkpt><trkpt lat="42.1191835" lon="12.7693675"><ele>231.33333333333331</ele><time>2026-03-28T09:09:32.844Z</time></trkpt><trkpt lat="42.1192004" lon="12.7696007"><ele>234.66666666666666</ele><time>2026-03-28T09:09:33.835Z</time></trkpt><trkpt lat="42.1192331" lon="12.769804"><ele>238.0</ele><time>2026-03-28T09:09:34.838Z</time></trkpt><trkpt lat="42.1192819" lon="12.7699913"><ele>238.0</ele><time>2026-03-28T09:09:35.843Z</time></trkpt><trkpt lat="42.1193488" lon="12.7701539"><ele>238.0</ele><time>2026-03-28T09:09:36.848Z</time></trkpt><trkpt lat="42.1194197" lon="12.7702973"><ele>238.0</ele><time>2026-03-28T09:09:37.84Z</time></trkpt><trkpt lat="42.1195182" lon="12.7704114"><ele>238.0</ele><time>2026-03-28T09:09:38.847Z</time></trkpt><trkpt lat="42.1196282" lon="12.7705058"><ele>238.0</ele><time>2026-03-28T09:09:39.836Z</time></trkpt><trkpt lat="42.1197427" lon="12.7706016"><ele>238.0</ele><time>2026-03-28T09:09:40.837Z</time></trkpt><trkpt lat="42.1198428" lon="12.7707222"><ele>238.0</ele><time>2026-03-28T09:09:41.846Z</time></trkpt><trkpt lat="42.1199279" lon="12.770876"><ele>238.0</ele><time>2026-03-28T09:09:42.839Z</time></trkpt><trkpt lat="42.1200028" lon="12.771018"><ele>239.0</ele><time>2026-03-28T09:09:43.842Z</time></trkpt><trkpt lat="42.1200887" lon="12.7711286"><ele>240.0</ele><time>2026-03-28T09:09:44.833Z</time></trkpt><trkpt lat="42.1201767" lon="12.7712149"><ele>241.0</ele><time>2026-03-28T09:09:45.839Z</time></trkpt><trkpt lat="42.1202514" lon="12.7712993"><ele>242.0</ele><time>2026-03-28T09:09:46.847Z</time></trkpt><trkpt lat="42.1203093" lon="12.7713801"><ele>243.0</ele><time>2026-03-28T09:09:47.847Z</time></trkpt><trkpt lat="42.1203477" lon="12.771448"><ele>243.0</ele><time>2026-03-28T09:09:48.845Z</time></trkpt><trkpt lat="42.1203937" lon="12.7715343"><ele>243.0</ele><time>2026-03-28T09:09:50.846Z</time></trkpt><trkpt lat="42.1204876" lon="12.771552"><ele>243.0</ele><time>2026-03-28T09:09:54.843Z</time></trkpt><trkpt lat="42.1205868" lon="12.7714531"><ele>243.0</ele><time>2026-03-28T09:09:56.851Z</time></trkpt><trkpt lat="42.1206574" lon="12.7713828"><ele>243.0</ele><time>2026-03-28T09:09:57.855Z</time></trkpt><trkpt lat="42.1207301" lon="12.7713091"><ele>239.75</ele><time>2026-03-28T09:09:58.841Z</time></trkpt><trkpt lat="42.120827" lon="12.7712526"><ele>236.5</ele><time>2026-03-28T09:09:59.844Z</time></trkpt><trkpt lat="42.1209446" lon="12.7711768"><ele>233.25</ele><time>2026-03-28T09:10:00.849Z</time></trkpt><trkpt lat="42.1210645" lon="12.7711039"><ele>230.0</ele><time>2026-03-28T09:10:01.841Z</time></trkpt><trkpt lat="42.1211958" lon="12.7710289"><ele>229.5</ele><time>2026-03-28T09:10:02.855Z</time></trkpt><trkpt lat="42.121327" lon="12.7709575"><ele>229.0</ele><time>2026-03-28T09:10:03.846Z</time></trkpt><trkpt lat="42.1214691" lon="12.7708956"><ele>228.5</ele><time>2026-03-28T09:10:04.847Z</time></trkpt><trkpt lat="42.1216169" lon="12.7708328"><ele>228.0</ele><time>2026-03-28T09:10:05.85Z</time></trkpt><trkpt lat="42.1217638" lon="12.7707694"><ele>228.0</ele><time>2026-03-28T09:10:06.85Z</time></trkpt><trkpt lat="42.1219108" lon="12.7707087"><ele>228.0</ele><time>2026-03-28T09:10:07.838Z</time></trkpt><trkpt lat="42.1220551" lon="12.7706262"><ele>228.0</ele><time>2026-03-28T09:10:08.849Z</time></trkpt><trkpt lat="42.1221937" lon="12.7705103"><ele>228.0</ele><time>2026-03-28T09:10:09.839Z</time></trkpt><trkpt lat="42.1223256" lon="12.7703679"><ele>228.0</ele><time>2026-03-28T09:10:10.841Z</time></trkpt><trkpt lat="42.122448" lon="12.7702191"><ele>228.0</ele><time>2026-03-28T09:10:11.848Z</time></trkpt><trkpt lat="42.1225707" lon="12.7700511"><ele>225.66666666666669</ele><time>2026-03-28T09:10:12.844Z</time></trkpt><trkpt lat="42.1226954" lon="12.7698875"><ele>223.33333333333334</ele><time>2026-03-28T09:10:13.841Z</time></trkpt><trkpt lat="42.1228271" lon="12.7697255"><ele>221.0</ele><time>2026-03-28T09:10:14.845Z</time></trkpt><trkpt lat="42.1229641" lon="12.769578"><ele>221.0</ele><time>2026-03-28T09:10:15.848Z</time></trkpt><trkpt lat="42.1231078" lon="12.7694472"><ele>221.0</ele><time>2026-03-28T09:10:16.846Z</time></trkpt><trkpt lat="42.1232633" lon="12.7693325"><ele>221.0</ele><time>2026-03-28T09:10:17.844Z</time></trkpt><trkpt lat="42.1234267" lon="12.7692555"><ele>218.66666666666669</ele><time>2026-03-28T09:10:18.851Z</time></trkpt><trkpt lat="42.1235958" lon="12.7691952"><ele>216.33333333333331</ele><time>2026-03-28T09:10:19.841Z</time></trkpt><trkpt lat="42.1237719" lon="12.7691495"><ele>214.0</ele><time>2026-03-28T09:10:20.849Z</time></trkpt><trkpt lat="42.1239448" lon="12.7691223"><ele>213.0</ele><time>2026-03-28T09:10:21.841Z</time></trkpt><trkpt lat="42.1241213" lon="12.7691116"><ele>212.0</ele><time>2026-03-28T09:10:22.844Z</time></trkpt><trkpt lat="42.1242966" lon="12.7691238"><ele>211.0</ele><time>2026-03-28T09:10:23.845Z</time></trkpt><trkpt lat="42.1244789" lon="12.7691423"><ele>211.0</ele><time>2026-03-28T09:10:24.851Z</time></trkpt><trkpt lat="42.1246586" lon="12.7691771"><ele>211.0</ele><time>2026-03-28T09:10:25.848Z</time></trkpt><trkpt lat="42.1248325" lon="12.7692163"><ele>211.0</ele><time>2026-03-28T09:10:26.851Z</time></trkpt><trkpt lat="42.1250103" lon="12.7692514"><ele>209.33333333333331</ele><time>2026-03-28T09:10:27.846Z</time></trkpt><trkpt lat="42.1251811" lon="12.7692828"><ele>207.66666666666669</ele><time>2026-03-28T09:10:28.851Z</time></trkpt><trkpt lat="42.1253478" lon="12.7692923"><ele>206.0</ele><time>2026-03-28T09:10:29.851Z</time></trkpt><trkpt lat="42.1255077" lon="12.7692799"><ele>206.0</ele><time>2026-03-28T09:10:30.855Z</time></trkpt><trkpt lat="42.125661" lon="12.7692445"><ele>206.0</ele><time>2026-03-28T09:10:31.85Z</time></trkpt><trkpt lat="42.1258096" lon="12.7691754"><ele>206.0</ele><time>2026-03-28T09:10:32.854Z</time></trkpt><trkpt lat="42.1259402" lon="12.7690857"><ele>204.75</ele><time>2026-03-28T09:10:33.846Z</time></trkpt><trkpt lat="42.1260609" lon="12.7689959"><ele>203.5</ele><time>2026-03-28T09:10:34.845Z</time></trkpt><trkpt lat="42.1261848" lon="12.7689287"><ele>202.25</ele><time>2026-03-28T09:10:35.853Z</time></trkpt><trkpt lat="42.1263103" lon="12.7689009"><ele>201.0</ele><time>2026-03-28T09:10:36.847Z</time></trkpt><trkpt lat="42.1264488" lon="12.7689197"><ele>200.25</ele><time>2026-03-28T09:10:37.852Z</time></trkpt><trkpt lat="42.1265886" lon="12.768963"><ele>199.5</ele><time>2026-03-28T09:10:38.851Z</time></trkpt><trkpt lat="42.1267364" lon="12.7690068"><ele>198.75</ele><time>2026-03-28T09:10:39.849Z</time></trkpt><trkpt lat="42.1268854" lon="12.7690322"><ele>198.0</ele><time>2026-03-28T09:10:40.852Z</time></trkpt><trkpt lat="42.1270316" lon="12.769017"><ele>198.0</ele><time>2026-03-28T09:10:41.846Z</time></trkpt><trkpt lat="42.1271819" lon="12.7689661"><ele>198.0</ele><time>2026-03-28T09:10:42.846Z</time></trkpt><trkpt lat="42.1273398" lon="12.768904"><ele>198.0</ele><time>2026-03-28T09:10:43.846Z</time></trkpt><trkpt lat="42.1275131" lon="12.7688277"><ele>197.33333333333331</ele><time>2026-03-28T09:10:44.85Z</time></trkpt><trkpt lat="42.1276819" lon="12.7687449"><ele>196.66666666666666</ele><time>2026-03-28T09:10:45.849Z</time></trkpt><trkpt lat="42.127843" lon="12.7686501"><ele>196.0</ele><time>2026-03-28T09:10:46.85Z</time></trkpt><trkpt lat="42.1280017" lon="12.7685379"><ele>195.66666666666666</ele><time>2026-03-28T09:10:47.842Z</time></trkpt><trkpt lat="42.1281547" lon="12.7683943"><ele>195.33333333333331</ele><time>2026-03-28T09:10:48.844Z</time></trkpt><trkpt lat="42.1283059" lon="12.7682418"><ele>195.0</ele><time>2026-03-28T09:10:49.849Z</time></trkpt><trkpt lat="42.1284578" lon="12.7680907"><ele>194.33333333333331</ele><time>2026-03-28T09:10:50.847Z</time></trkpt><trkpt lat="42.1286125" lon="12.7679374"><ele>193.66666666666666</ele><time>2026-03-28T09:10:51.853Z</time></trkpt><trkpt lat="42.1287634" lon="12.767789"><ele>193.0</ele><time>2026-03-28T09:10:52.847Z</time></trkpt><trkpt lat="42.1289046" lon="12.7676383"><ele>192.33333333333331</ele><time>2026-03-28T09:10:53.841Z</time></trkpt><trkpt lat="42.1290241" lon="12.7674797"><ele>191.66666666666666</ele><time>2026-03-28T09:10:54.844Z</time></trkpt><trkpt lat="42.1291295" lon="12.7672914"><ele>191.0</ele><time>2026-03-28T09:10:55.849Z</time></trkpt><trkpt lat="42.1292371" lon="12.7670741"><ele>189.0</ele><time>2026-03-28T09:10:56.849Z</time></trkpt><trkpt lat="42.1293493" lon="12.7668553"><ele>187.0</ele><time>2026-03-28T09:10:57.85Z</time></trkpt><trkpt lat="42.1294618" lon="12.7666382"><ele>185.0</ele><time>2026-03-28T09:10:58.839Z</time></trkpt><trkpt lat="42.1295795" lon="12.7664298"><ele>185.0</ele><time>2026-03-28T09:10:59.849Z</time></trkpt><trkpt lat="42.1297098" lon="12.7662359"><ele>185.0</ele><time>2026-03-28T09:11:00.841Z</time></trkpt><trkpt lat="42.1298576" lon="12.7660596"><ele>185.0</ele><time>2026-03-28T09:11:01.844Z</time></trkpt><trkpt lat="42.1300115" lon="12.7659065"><ele>184.33333333333331</ele><time>2026-03-28T09:11:02.844Z</time></trkpt><trkpt lat="42.1301754" lon="12.76579"><ele>183.66666666666666</ele><time>2026-03-28T09:11:03.841Z</time></trkpt><trkpt lat="42.1303501" lon="12.7657032"><ele>183.0</ele><time>2026-03-28T09:11:04.845Z</time></trkpt><trkpt lat="42.1305363" lon="12.7656394"><ele>183.0</ele><time>2026-03-28T09:11:05.843Z</time></trkpt><trkpt lat="42.1307142" lon="12.7655634"><ele>183.0</ele><time>2026-03-28T09:11:06.846Z</time></trkpt><trkpt lat="42.130873" lon="12.7654713"><ele>183.0</ele><time>2026-03-28T09:11:07.842Z</time></trkpt><trkpt lat="42.1310155" lon="12.7653485"><ele>184.0</ele><time>2026-03-28T09:11:08.844Z</time></trkpt><trkpt lat="42.1311411" lon="12.7652026"><ele>185.0</ele><time>2026-03-28T09:11:09.84Z</time></trkpt><trkpt lat="42.1312666" lon="12.7650414"><ele>186.0</ele><time>2026-03-28T09:11:10.838Z</time></trkpt><trkpt lat="42.1313952" lon="12.7648609"><ele>184.66666666666666</ele><time>2026-03-28T09:11:11.842Z</time></trkpt><trkpt lat="42.1315261" lon="12.7646537"><ele>183.33333333333331</ele><time>2026-03-28T09:11:12.851Z</time></trkpt><trkpt lat="42.1316599" lon="12.7644479"><ele>182.0</ele><time>2026-03-28T09:11:13.84Z</time></trkpt><trkpt lat="42.1317898" lon="12.7642465"><ele>181.0</ele><time>2026-03-28T09:11:14.844Z</time></trkpt><trkpt lat="42.1319164" lon="12.7640698"><ele>180.0</ele><time>2026-03-28T09:11:15.84Z</time></trkpt><trkpt lat="42.1320233" lon="12.7638924"><ele>179.0</ele><time>2026-03-28T09:11:16.846Z</time></trkpt><trkpt lat="42.1320962" lon="12.7637084"><ele>178.5</ele><time>2026-03-28T09:11:17.85Z</time></trkpt><trkpt lat="42.1321313" lon="12.7635166"><ele>178.0</ele><time>2026-03-28T09:11:18.856Z</time></trkpt><trkpt lat="42.1321443" lon="12.7633255"><ele>177.5</ele><time>2026-03-28T09:11:19.853Z</time></trkpt><trkpt lat="42.1321359" lon="12.7631373"><ele>177.0</ele><time>2026-03-28T09:11:20.841Z</time></trkpt><trkpt lat="42.1321495" lon="12.7629638"><ele>177.0</ele><time>2026-03-28T09:11:21.849Z</time></trkpt><trkpt lat="42.1321863" lon="12.7628012"><ele>177.0</ele><time>2026-03-28T09:11:22.849Z</time></trkpt><trkpt lat="42.1322511" lon="12.7626578"><ele>177.0</ele><time>2026-03-28T09:11:23.847Z</time></trkpt><trkpt lat="42.1323423" lon="12.7625294"><ele>177.0</ele><time>2026-03-28T09:11:24.847Z</time></trkpt><trkpt lat="42.1324627" lon="12.7624049"><ele>178.0</ele><time>2026-03-28T09:11:25.844Z</time></trkpt><trkpt lat="42.1326002" lon="12.7622827"><ele>179.0</ele><time>2026-03-28T09:11:26.85Z</time></trkpt><trkpt lat="42.1327548" lon="12.7621392"><ele>180.0</ele><time>2026-03-28T09:11:27.85Z</time></trkpt><trkpt lat="42.132909" lon="12.7619911"><ele>179.66666666666666</ele><time>2026-03-28T09:11:28.846Z</time></trkpt><trkpt lat="42.1330538" lon="12.7618349"><ele>179.33333333333331</ele><time>2026-03-28T09:11:29.844Z</time></trkpt><trkpt lat="42.1331985" lon="12.7616658"><ele>179.0</ele><time>2026-03-28T09:11:30.853Z</time></trkpt><trkpt lat="42.1333478" lon="12.7614869"><ele>179.0</ele><time>2026-03-28T09:11:31.844Z</time></trkpt><trkpt lat="42.1334909" lon="12.7612918"><ele>179.0</ele><time>2026-03-28T09:11:32.847Z</time></trkpt><trkpt lat="42.1336302" lon="12.7610905"><ele>179.0</ele><time>2026-03-28T09:11:33.844Z</time></trkpt><trkpt lat="42.1337574" lon="12.7608715"><ele>177.66666666666666</ele><time>2026-03-28T09:11:34.845Z</time></trkpt><trkpt lat="42.133879" lon="12.7606597"><ele>176.33333333333334</ele><time>2026-03-28T09:11:35.842Z</time></trkpt><trkpt lat="42.133995" lon="12.7604757"><ele>175.0</ele><time>2026-03-28T09:11:36.853Z</time></trkpt><trkpt lat="42.1341099" lon="12.7603504"><ele>175.0</ele><time>2026-03-28T09:11:37.855Z</time></trkpt><trkpt lat="42.1342289" lon="12.7602623"><ele>175.0</ele><time>2026-03-28T09:11:38.842Z</time></trkpt><trkpt lat="42.1343587" lon="12.7602302"><ele>175.0</ele><time>2026-03-28T09:11:39.843Z</time></trkpt><trkpt lat="42.1345082" lon="12.7602576"><ele>175.0</ele><time>2026-03-28T09:11:40.846Z</time></trkpt><trkpt lat="42.1346715" lon="12.7602966"><ele>175.0</ele><time>2026-03-28T09:11:41.841Z</time></trkpt><trkpt lat="42.1348466" lon="12.7603617"><ele>175.0</ele><time>2026-03-28T09:11:42.846Z</time></trkpt><trkpt lat="42.1350334" lon="12.7604257"><ele>175.0</ele><time>2026-03-28T09:11:43.842Z</time></trkpt><trkpt lat="42.1352192" lon="12.7604919"><ele>174.33333333333334</ele><time>2026-03-28T09:11:44.844Z</time></trkpt><trkpt lat="42.1354077" lon="12.7605325"><ele>173.66666666666666</ele><time>2026-03-28T09:11:45.845Z</time></trkpt><trkpt lat="42.1356078" lon="12.7605554"><ele>173.0</ele><time>2026-03-28T09:11:46.847Z</time></trkpt><trkpt lat="42.1358148" lon="12.7605521"><ele>172.66666666666666</ele><time>2026-03-28T09:11:47.843Z</time></trkpt><trkpt lat="42.1360171" lon="12.7605354"><ele>172.33333333333334</ele><time>2026-03-28T09:11:48.849Z</time></trkpt><trkpt lat="42.1362088" lon="12.7605101"><ele>172.0</ele><time>2026-03-28T09:11:49.846Z</time></trkpt><trkpt lat="42.1364022" lon="12.7604324"><ele>171.0</ele><time>2026-03-28T09:11:50.847Z</time></trkpt><trkpt lat="42.1365872" lon="12.7603313"><ele>170.0</ele><time>2026-03-28T09:11:51.843Z</time></trkpt><trkpt lat="42.1367642" lon="12.7601957"><ele>169.0</ele><time>2026-03-28T09:11:52.84Z</time></trkpt><trkpt lat="42.136914" lon="12.7600372"><ele>169.0</ele><time>2026-03-28T09:11:53.851Z</time></trkpt><trkpt lat="42.1370505" lon="12.7598574"><ele>169.0</ele><time>2026-03-28T09:11:54.846Z</time></trkpt><trkpt lat="42.1371809" lon="12.7596593"><ele>169.0</ele><time>2026-03-28T09:11:55.84Z</time></trkpt><trkpt lat="42.137314" lon="12.7594431"><ele>169.0</ele><time>2026-03-28T09:11:56.862Z</time></trkpt><trkpt lat="42.1374575" lon="12.7592274"><ele>169.0</ele><time>2026-03-28T09:11:57.843Z</time></trkpt><trkpt lat="42.1376053" lon="12.7590044"><ele>169.0</ele><time>2026-03-28T09:11:58.848Z</time></trkpt><trkpt lat="42.1377484" lon="12.7587769"><ele>169.0</ele><time>2026-03-28T09:11:59.847Z</time></trkpt><trkpt lat="42.1378894" lon="12.7585471"><ele>169.0</ele><time>2026-03-28T09:12:00.849Z</time></trkpt><trkpt lat="42.1380316" lon="12.7583071"><ele>169.0</ele><time>2026-03-28T09:12:01.842Z</time></trkpt><trkpt lat="42.1381723" lon="12.7580724"><ele>166.33333333333334</ele><time>2026-03-28T09:12:02.849Z</time></trkpt><trkpt lat="42.13831" lon="12.7578447"><ele>163.66666666666666</ele><time>2026-03-28T09:12:03.839Z</time></trkpt><trkpt lat="42.1384484" lon="12.7576167"><ele>161.0</ele><time>2026-03-28T09:12:04.84Z</time></trkpt><trkpt lat="42.1385948" lon="12.7574036"><ele>158.66666666666666</ele><time>2026-03-28T09:12:05.847Z</time></trkpt><trkpt lat="42.1387529" lon="12.7572063"><ele>156.33333333333334</ele><time>2026-03-28T09:12:06.849Z</time></trkpt><trkpt lat="42.1389232" lon="12.7570151"><ele>154.0</ele><time>2026-03-28T09:12:07.845Z</time></trkpt><trkpt lat="42.1390968" lon="12.7568317"><ele>153.0</ele><time>2026-03-28T09:12:08.842Z</time></trkpt><trkpt lat="42.1392821" lon="12.7566611"><ele>152.0</ele><time>2026-03-28T09:12:09.843Z</time></trkpt><trkpt lat="42.1394772" lon="12.756506"><ele>152.0</ele><time>2026-03-28T09:12:10.848Z</time></trkpt><trkpt lat="42.1396816" lon="12.7564145"><ele>152.0</ele><time>2026-03-28T09:12:11.852Z</time></trkpt><trkpt lat="42.1398916" lon="12.7563373"><ele>152.0</ele><time>2026-03-28T09:12:12.844Z</time></trkpt><trkpt lat="42.1401035" lon="12.7562206"><ele>152.66666666666666</ele><time>2026-03-28T09:12:13.85Z</time></trkpt><trkpt lat="42.1403082" lon="12.7561224"><ele>153.33333333333334</ele><time>2026-03-28T09:12:14.843Z</time></trkpt><trkpt lat="42.1405135" lon="12.7560376"><ele>154.0</ele><time>2026-03-28T09:12:15.838Z</time></trkpt><trkpt lat="42.1407184" lon="12.7559594"><ele>151.0</ele><time>2026-03-28T09:12:16.84Z</time></trkpt><trkpt lat="42.140923" lon="12.7558793"><ele>148.0</ele><time>2026-03-28T09:12:17.843Z</time></trkpt><trkpt lat="42.1411268" lon="12.755798"><ele>145.0</ele><time>2026-03-28T09:12:18.848Z</time></trkpt><trkpt lat="42.1413355" lon="12.7557175"><ele>145.66666666666669</ele><time>2026-03-28T09:12:19.854Z</time></trkpt><trkpt lat="42.1415491" lon="12.7556378"><ele>146.33333333333334</ele><time>2026-03-28T09:12:20.846Z</time></trkpt><trkpt lat="42.1417613" lon="12.7555587"><ele>147.0</ele><time>2026-03-28T09:12:21.846Z</time></trkpt><trkpt lat="42.14197" lon="12.7554631"><ele>147.0</ele><time>2026-03-28T09:12:22.841Z</time></trkpt><trkpt lat="42.1421794" lon="12.7553612"><ele>147.0</ele><time>2026-03-28T09:12:23.854Z</time></trkpt><trkpt lat="42.1423862" lon="12.7552503"><ele>147.0</ele><time>2026-03-28T09:12:24.847Z</time></trkpt><trkpt lat="42.1425816" lon="12.7551197"><ele>146.0</ele><time>2026-03-28T09:12:25.848Z</time></trkpt><trkpt lat="42.1427634" lon="12.7549886"><ele>145.0</ele><time>2026-03-28T09:12:26.841Z</time></trkpt><trkpt lat="42.1429325" lon="12.7548398"><ele>144.0</ele><time>2026-03-28T09:12:27.849Z</time></trkpt><trkpt lat="42.143103" lon="12.7546853"><ele>144.33333333333334</ele><time>2026-03-28T09:12:28.85Z</time></trkpt><trkpt lat="42.1432701" lon="12.754526"><ele>144.66666666666669</ele><time>2026-03-28T09:12:29.847Z</time></trkpt><trkpt lat="42.1434333" lon="12.7543572"><ele>145.0</ele><time>2026-03-28T09:12:30.841Z</time></trkpt><trkpt lat="42.1435802" lon="12.7541826"><ele>145.0</ele><time>2026-03-28T09:12:31.845Z</time></trkpt><trkpt lat="42.1437069" lon="12.7539829"><ele>145.0</ele><time>2026-03-28T09:12:32.842Z</time></trkpt><trkpt lat="42.1438214" lon="12.7537652"><ele>145.0</ele><time>2026-03-28T09:12:33.842Z</time></trkpt><trkpt lat="42.1439367" lon="12.7535536"><ele>145.66666666666669</ele><time>2026-03-28T09:12:34.843Z</time></trkpt><trkpt lat="42.1440495" lon="12.7533466"><ele>146.33333333333334</ele><time>2026-03-28T09:12:35.844Z</time></trkpt><trkpt lat="42.1441672" lon="12.7531689"><ele>147.0</ele><time>2026-03-28T09:12:36.849Z</time></trkpt><trkpt lat="42.1442997" lon="12.7530251"><ele>147.0</ele><time>2026-03-28T09:12:37.855Z</time></trkpt><trkpt lat="42.1444446" lon="12.7528963"><ele>147.0</ele><time>2026-03-28T09:12:38.842Z</time></trkpt><trkpt lat="42.144608" lon="12.7527641"><ele>147.0</ele><time>2026-03-28T09:12:39.844Z</time></trkpt><trkpt lat="42.1447619" lon="12.7526152"><ele>146.0</ele><time>2026-03-28T09:12:40.844Z</time></trkpt><trkpt lat="42.1448913" lon="12.7524208"><ele>145.0</ele><time>2026-03-28T09:12:41.845Z</time></trkpt><trkpt lat="42.1450022" lon="12.752209"><ele>144.0</ele><time>2026-03-28T09:12:42.841Z</time></trkpt><trkpt lat="42.1450934" lon="12.7519894"><ele>143.33333333333334</ele><time>2026-03-28T09:12:43.846Z</time></trkpt><trkpt lat="42.1451514" lon="12.7517658"><ele>142.66666666666669</ele><time>2026-03-28T09:12:44.853Z</time></trkpt><trkpt lat="42.1451737" lon="12.7515161"><ele>142.0</ele><time>2026-03-28T09:12:45.846Z</time></trkpt><trkpt lat="42.1451803" lon="12.7512602"><ele>142.33333333333334</ele><time>2026-03-28T09:12:46.843Z</time></trkpt><trkpt lat="42.1451949" lon="12.751005"><ele>142.66666666666666</ele><time>2026-03-28T09:12:47.844Z</time></trkpt><trkpt lat="42.1452149" lon="12.7507575"><ele>143.0</ele><time>2026-03-28T09:12:48.851Z</time></trkpt><trkpt lat="42.1452421" lon="12.750514"><ele>143.0</ele><time>2026-03-28T09:12:49.844Z</time></trkpt><trkpt lat="42.1452718" lon="12.750264"><ele>143.0</ele><time>2026-03-28T09:12:50.847Z</time></trkpt><trkpt lat="42.1453167" lon="12.7500207"><ele>143.0</ele><time>2026-03-28T09:12:51.839Z</time></trkpt><trkpt lat="42.1453667" lon="12.7497822"><ele>141.33333333333331</ele><time>2026-03-28T09:12:52.844Z</time></trkpt><trkpt lat="42.1454274" lon="12.7495601"><ele>139.66666666666666</ele><time>2026-03-28T09:12:53.839Z</time></trkpt><trkpt lat="42.1455011" lon="12.7493511"><ele>138.0</ele><time>2026-03-28T09:12:54.847Z</time></trkpt><trkpt lat="42.1455758" lon="12.7491576"><ele>137.75</ele><time>2026-03-28T09:12:55.857Z</time></trkpt><trkpt lat="42.1456479" lon="12.748979"><ele>137.5</ele><time>2026-03-28T09:12:56.847Z</time></trkpt><trkpt lat="42.1457254" lon="12.748809"><ele>137.25</ele><time>2026-03-28T09:12:57.845Z</time></trkpt><trkpt lat="42.145803" lon="12.748652"><ele>137.0</ele><time>2026-03-28T09:12:58.849Z</time></trkpt><trkpt lat="42.1458791" lon="12.7485051"><ele>137.0</ele><time>2026-03-28T09:12:59.842Z</time></trkpt><trkpt lat="42.1459574" lon="12.7483616"><ele>137.0</ele><time>2026-03-28T09:13:00.851Z</time></trkpt><trkpt lat="42.1460424" lon="12.7482224"><ele>137.0</ele><time>2026-03-28T09:13:01.84Z</time></trkpt><trkpt lat="42.1461242" lon="12.7480955"><ele>137.0</ele><time>2026-03-28T09:13:02.845Z</time></trkpt><trkpt lat="42.1462101" lon="12.7479655"><ele>137.0</ele><time>2026-03-28T09:13:03.851Z</time></trkpt><trkpt lat="42.1462899" lon="12.7478253"><ele>137.0</ele><time>2026-03-28T09:13:04.838Z</time></trkpt><trkpt lat="42.1463656" lon="12.7476912"><ele>137.0</ele><time>2026-03-28T09:13:05.841Z</time></trkpt><trkpt lat="42.1464405" lon="12.7475519"><ele>137.0</ele><time>2026-03-28T09:13:06.838Z</time></trkpt><trkpt lat="42.1465093" lon="12.7474138"><ele>137.25</ele><time>2026-03-28T09:13:07.837Z</time></trkpt><trkpt lat="42.1465703" lon="12.7472802"><ele>137.5</ele><time>2026-03-28T09:13:08.848Z</time></trkpt><trkpt lat="42.1466299" lon="12.7471407"><ele>137.75</ele><time>2026-03-28T09:13:09.841Z</time></trkpt><trkpt lat="42.1466903" lon="12.7469952"><ele>138.0</ele><time>2026-03-28T09:13:10.842Z</time></trkpt><trkpt lat="42.1467491" lon="12.7468493"><ele>138.0</ele><time>2026-03-28T09:13:11.837Z</time></trkpt><trkpt lat="42.1468116" lon="12.7466945"><ele>138.0</ele><time>2026-03-28T09:13:12.838Z</time></trkpt><trkpt lat="42.1468644" lon="12.7465308"><ele>138.0</ele><time>2026-03-28T09:13:13.838Z</time></trkpt><trkpt lat="42.1469071" lon="12.7463616"><ele>138.0</ele><time>2026-03-28T09:13:14.845Z</time></trkpt><trkpt lat="42.1469443" lon="12.7462077"><ele>138.0</ele><time>2026-03-28T09:13:15.834Z</time></trkpt><trkpt lat="42.146975" lon="12.7460739"><ele>138.0</ele><time>2026-03-28T09:13:16.845Z</time></trkpt><trkpt lat="42.1469952" lon="12.7459497"><ele>138.0</ele><time>2026-03-28T09:13:17.839Z</time></trkpt><trkpt lat="42.1470201" lon="12.7458282"><ele>138.0</ele><time>2026-03-28T09:13:18.839Z</time></trkpt><trkpt lat="42.1470611" lon="12.7457194"><ele>138.0</ele><time>2026-03-28T09:13:19.849Z</time></trkpt><trkpt lat="42.1471138" lon="12.7456249"><ele>138.6</ele><time>2026-03-28T09:13:20.841Z</time></trkpt><trkpt lat="42.1471801" lon="12.7455327"><ele>139.20000000000002</ele><time>2026-03-28T09:13:21.85Z</time></trkpt><trkpt lat="42.1472633" lon="12.7454517"><ele>139.8</ele><time>2026-03-28T09:13:22.847Z</time></trkpt><trkpt lat="42.1473704" lon="12.7453981"><ele>140.4</ele><time>2026-03-28T09:13:23.839Z</time></trkpt><trkpt lat="42.1474844" lon="12.7453464"><ele>141.0</ele><time>2026-03-28T09:13:24.847Z</time></trkpt><trkpt lat="42.1476021" lon="12.7452954"><ele>141.0</ele><time>2026-03-28T09:13:25.849Z</time></trkpt><trkpt lat="42.1477236" lon="12.7452481"><ele>141.0</ele><time>2026-03-28T09:13:26.84Z</time></trkpt><trkpt lat="42.1478395" lon="12.7451976"><ele>141.0</ele><time>2026-03-28T09:13:27.844Z</time></trkpt><trkpt lat="42.1479595" lon="12.7451562"><ele>141.0</ele><time>2026-03-28T09:13:28.844Z</time></trkpt><trkpt lat="42.1480776" lon="12.7451045"><ele>139.5</ele><time>2026-03-28T09:13:29.849Z</time></trkpt><trkpt lat="42.1481958" lon="12.7450595"><ele>138.0</ele><time>2026-03-28T09:13:30.836Z</time></trkpt><trkpt lat="42.1483143" lon="12.7450261"><ele>136.5</ele><time>2026-03-28T09:13:31.845Z</time></trkpt><trkpt lat="42.1484258" lon="12.7449861"><ele>135.0</ele><time>2026-03-28T09:13:32.842Z</time></trkpt><trkpt lat="42.148534" lon="12.7449531"><ele>135.0</ele><time>2026-03-28T09:13:33.838Z</time></trkpt><trkpt lat="42.1486393" lon="12.7449177"><ele>135.0</ele><time>2026-03-28T09:13:34.843Z</time></trkpt><trkpt lat="42.1487349" lon="12.7448732"><ele>135.0</ele><time>2026-03-28T09:13:35.851Z</time></trkpt><trkpt lat="42.1488198" lon="12.7448042"><ele>135.0</ele><time>2026-03-28T09:13:36.845Z</time></trkpt><trkpt lat="42.1488967" lon="12.7447115"><ele>135.0</ele><time>2026-03-28T09:13:37.846Z</time></trkpt><trkpt lat="42.1489475" lon="12.7445922"><ele>135.0</ele><time>2026-03-28T09:13:38.846Z</time></trkpt><trkpt lat="42.1489735" lon="12.7444522"><ele>135.0</ele><time>2026-03-28T09:13:39.845Z</time></trkpt><trkpt lat="42.1489654" lon="12.7443135"><ele>135.0</ele><time>2026-03-28T09:13:40.844Z</time></trkpt><trkpt lat="42.1489205" lon="12.7441981"><ele>135.0</ele><time>2026-03-28T09:13:41.848Z</time></trkpt><trkpt lat="42.1488527" lon="12.7440921"><ele>135.0</ele><time>2026-03-28T09:13:42.847Z</time></trkpt><trkpt lat="42.1487802" lon="12.7439896"><ele>134.2</ele><time>2026-03-28T09:13:43.848Z</time></trkpt><trkpt lat="42.1486969" lon="12.7438851"><ele>133.4</ele><time>2026-03-28T09:13:44.848Z</time></trkpt><trkpt lat="42.148608" lon="12.743785"><ele>132.6</ele><time>2026-03-28T09:13:45.842Z</time></trkpt><trkpt lat="42.1485195" lon="12.7436884"><ele>131.8</ele><time>2026-03-28T09:13:46.843Z</time></trkpt><trkpt lat="42.1484428" lon="12.7436045"><ele>131.0</ele><time>2026-03-28T09:13:47.844Z</time></trkpt><trkpt lat="42.1483789" lon="12.7435309"><ele>130.66666666666666</ele><time>2026-03-28T09:13:48.84Z</time></trkpt><trkpt lat="42.1483285" lon="12.7434715"><ele>130.33333333333331</ele><time>2026-03-28T09:13:49.84Z</time></trkpt><trkpt lat="42.148277" lon="12.7434116"><ele>130.0</ele><time>2026-03-28T09:13:50.853Z</time></trkpt><trkpt lat="42.1482307" lon="12.7433492"><ele>129.66666666666666</ele><time>2026-03-28T09:13:51.839Z</time></trkpt><trkpt lat="42.1481825" lon="12.7432192"><ele>129.33333333333334</ele><time>2026-03-28T09:13:53.844Z</time></trkpt><trkpt lat="42.1482172" lon="12.7430665"><ele>129.0</ele><time>2026-03-28T09:13:55.841Z</time></trkpt><trkpt lat="42.1482724" lon="12.7430057"><ele>131.0</ele><time>2026-03-28T09:13:56.846Z</time></trkpt><trkpt lat="42.1483446" lon="12.7429617"><ele>133.0</ele><time>2026-03-28T09:13:57.843Z</time></trkpt><trkpt lat="42.148435" lon="12.7429399"><ele>135.0</ele><time>2026-03-28T09:13:58.851Z</time></trkpt><trkpt lat="42.1485352" lon="12.7429256"><ele>137.0</ele><time>2026-03-28T09:13:59.845Z</time></trkpt><trkpt lat="42.1486574" lon="12.7428984"><ele>139.0</ele><time>2026-03-28T09:14:00.856Z</time></trkpt><trkpt lat="42.1487879" lon="12.7428693"><ele>139.0</ele><time>2026-03-28T09:14:01.846Z</time></trkpt><trkpt lat="42.1489155" lon="12.7428336"><ele>139.0</ele><time>2026-03-28T09:14:02.853Z</time></trkpt><trkpt lat="42.1490425" lon="12.7427892"><ele>139.0</ele><time>2026-03-28T09:14:03.843Z</time></trkpt><trkpt lat="42.149182" lon="12.7427257"><ele>139.0</ele><time>2026-03-28T09:14:04.845Z</time></trkpt><trkpt lat="42.1493257" lon="12.7426502"><ele>140.25</ele><time>2026-03-28T09:14:05.846Z</time></trkpt><trkpt lat="42.1494715" lon="12.742573"><ele>141.5</ele><time>2026-03-28T09:14:06.843Z</time></trkpt><trkpt lat="42.149612" lon="12.7425025"><ele>142.75</ele><time>2026-03-28T09:14:07.845Z</time></trkpt><trkpt lat="42.1497398" lon="12.7424464"><ele>144.0</ele><time>2026-03-28T09:14:08.84Z</time></trkpt><trkpt lat="42.1498584" lon="12.7424093"><ele>145.25</ele><time>2026-03-28T09:14:09.842Z</time></trkpt><trkpt lat="42.1499807" lon="12.7424054"><ele>146.5</ele><time>2026-03-28T09:14:10.847Z</time></trkpt><trkpt lat="42.1500958" lon="12.7424512"><ele>147.75</ele><time>2026-03-28T09:14:11.844Z</time></trkpt><trkpt lat="42.1501946" lon="12.7425204"><ele>149.0</ele><time>2026-03-28T09:14:12.851Z</time></trkpt><trkpt lat="42.1502703" lon="12.7426195"><ele>150.66666666666666</ele><time>2026-03-28T09:14:13.84Z</time></trkpt><trkpt lat="42.1502994" lon="12.7427173"><ele>152.33333333333331</ele><time>2026-03-28T09:14:14.844Z</time></trkpt><trkpt lat="42.1502832" lon="12.7428007"><ele>154.0</ele><time>2026-03-28T09:14:15.845Z</time></trkpt><trkpt lat="42.1502353" lon="12.74286"><ele>155.66666666666666</ele><time>2026-03-28T09:14:16.848Z</time></trkpt><trkpt lat="42.1501651" lon="12.7428887"><ele>157.33333333333334</ele><time>2026-03-28T09:14:17.845Z</time></trkpt><trkpt lat="42.1500665" lon="12.7429081"><ele>159.0</ele><time>2026-03-28T09:14:18.845Z</time></trkpt><trkpt lat="42.149964" lon="12.7429066"><ele>157.4</ele><time>2026-03-28T09:14:19.84Z</time></trkpt><trkpt lat="42.149859" lon="12.7429413"><ele>155.8</ele><time>2026-03-28T09:14:20.845Z</time></trkpt><trkpt lat="42.1497665" lon="12.7430158"><ele>154.2</ele><time>2026-03-28T09:14:21.844Z</time></trkpt><trkpt lat="42.1496926" lon="12.7431381"><ele>152.6</ele><time>2026-03-28T09:14:22.849Z</time></trkpt><trkpt lat="42.1496525" lon="12.7432824"><ele>151.0</ele><time>2026-03-28T09:14:23.845Z</time></trkpt><trkpt lat="42.1496456" lon="12.7434458"><ele>149.5</ele><time>2026-03-28T09:14:24.843Z</time></trkpt><trkpt lat="42.1496806" lon="12.7435912"><ele>148.0</ele><time>2026-03-28T09:14:25.845Z</time></trkpt><trkpt lat="42.1497502" lon="12.7437194"><ele>146.5</ele><time>2026-03-28T09:14:26.847Z</time></trkpt><trkpt lat="42.149859" lon="12.7438364"><ele>145.0</ele><time>2026-03-28T09:14:27.841Z</time></trkpt><trkpt lat="42.14998" lon="12.7439337"><ele>148.0</ele><time>2026-03-28T09:14:28.849Z</time></trkpt><trkpt lat="42.1501089" lon="12.74399"><ele>151.0</ele><time>2026-03-28T09:14:29.848Z</time></trkpt><trkpt lat="42.1502551" lon="12.7440201"><ele>154.0</ele><time>2026-03-28T09:14:30.843Z</time></trkpt><trkpt lat="42.1504084" lon="12.7440279"><ele>157.0</ele><time>2026-03-28T09:14:31.847Z</time></trkpt><trkpt lat="42.1505622" lon="12.7440307"><ele>159.0</ele><time>2026-03-28T09:14:32.848Z</time></trkpt><trkpt lat="42.1507102" lon="12.7440492"><ele>161.0</ele><time>2026-03-28T09:14:33.844Z</time></trkpt><trkpt lat="42.1508549" lon="12.744093"><ele>163.0</ele><time>2026-03-28T09:14:34.839Z</time></trkpt><trkpt lat="42.1509933" lon="12.7441515"><ele>165.0</ele><time>2026-03-28T09:14:35.841Z</time></trkpt><trkpt lat="42.151144" lon="12.744221"><ele>165.0</ele><time>2026-03-28T09:14:36.841Z</time></trkpt><trkpt lat="42.1512912" lon="12.7443006"><ele>165.0</ele><time>2026-03-28T09:14:37.843Z</time></trkpt><trkpt lat="42.1514297" lon="12.7443839"><ele>165.0</ele><time>2026-03-28T09:14:38.851Z</time></trkpt><trkpt lat="42.1515675" lon="12.7444627"><ele>167.0</ele><time>2026-03-28T09:14:39.843Z</time></trkpt><trkpt lat="42.1517108" lon="12.7445372"><ele>169.0</ele><time>2026-03-28T09:14:40.839Z</time></trkpt><trkpt lat="42.1518585" lon="12.7446128"><ele>171.0</ele><time>2026-03-28T09:14:41.851Z</time></trkpt><trkpt lat="42.1520103" lon="12.7446892"><ele>171.0</ele><time>2026-03-28T09:14:42.851Z</time></trkpt><trkpt lat="42.1521707" lon="12.7447691"><ele>171.0</ele><time>2026-03-28T09:14:43.843Z</time></trkpt><trkpt lat="42.1523271" lon="12.7448535"><ele>171.0</ele><time>2026-03-28T09:14:44.851Z</time></trkpt><trkpt lat="42.1524812" lon="12.7449391"><ele>170.0</ele><time>2026-03-28T09:14:45.849Z</time></trkpt><trkpt lat="42.1526271" lon="12.7450429"><ele>169.0</ele><time>2026-03-28T09:14:46.854Z</time></trkpt><trkpt lat="42.1527581" lon="12.7451849"><ele>168.0</ele><time>2026-03-28T09:14:47.84Z</time></trkpt><trkpt lat="42.1528793" lon="12.7453573"><ele>168.0</ele><time>2026-03-28T09:14:48.848Z</time></trkpt><trkpt lat="42.152995" lon="12.7455345"><ele>168.0</ele><time>2026-03-28T09:14:49.846Z</time></trkpt><trkpt lat="42.1530984" lon="12.7456728"><ele>168.0</ele><time>2026-03-28T09:14:50.844Z</time></trkpt><trkpt lat="42.1532002" lon="12.7457691"><ele>168.0</ele><time>2026-03-28T09:14:51.842Z</time></trkpt><trkpt lat="42.153316" lon="12.7458103"><ele>171.25</ele><time>2026-03-28T09:14:52.85Z</time></trkpt><trkpt lat="42.1534439" lon="12.7458122"><ele>174.5</ele><time>2026-03-28T09:14:53.849Z</time></trkpt><trkpt lat="42.1535714" lon="12.7457821"><ele>177.75</ele><time>2026-03-28T09:14:54.847Z</time></trkpt><trkpt lat="42.1537213" lon="12.7457141"><ele>181.0</ele><time>2026-03-28T09:14:55.846Z</time></trkpt><trkpt lat="42.1538814" lon="12.7456224"><ele>180.0</ele><time>2026-03-28T09:14:56.849Z</time></trkpt><trkpt lat="42.1540436" lon="12.7455293"><ele>179.0</ele><time>2026-03-28T09:14:57.846Z</time></trkpt><trkpt lat="42.1542111" lon="12.7454471"><ele>178.0</ele><time>2026-03-28T09:14:58.844Z</time></trkpt><trkpt lat="42.1543829" lon="12.7453872"><ele>178.0</ele><time>2026-03-28T09:14:59.849Z</time></trkpt><trkpt lat="42.1545655" lon="12.745334"><ele>178.0</ele><time>2026-03-28T09:15:00.847Z</time></trkpt><trkpt lat="42.1547436" lon="12.7452898"><ele>178.0</ele><time>2026-03-28T09:15:01.85Z</time></trkpt><trkpt lat="42.1549214" lon="12.7452413"><ele>180.0</ele><time>2026-03-28T09:15:02.845Z</time></trkpt><trkpt lat="42.1550994" lon="12.7452112"><ele>182.0</ele><time>2026-03-28T09:15:03.842Z</time></trkpt><trkpt lat="42.1552891" lon="12.7452028"><ele>184.0</ele><time>2026-03-28T09:15:04.839Z</time></trkpt><trkpt lat="42.1554766" lon="12.7452242"><ele>184.0</ele><time>2026-03-28T09:15:05.845Z</time></trkpt><trkpt lat="42.1556464" lon="12.7452669"><ele>184.0</ele><time>2026-03-28T09:15:06.849Z</time></trkpt><trkpt lat="42.1558131" lon="12.7453034"><ele>184.0</ele><time>2026-03-28T09:15:07.85Z</time></trkpt><trkpt lat="42.1559764" lon="12.7453169"><ele>186.0</ele><time>2026-03-28T09:15:08.842Z</time></trkpt><trkpt lat="42.156149" lon="12.7453099"><ele>188.0</ele><time>2026-03-28T09:15:09.861Z</time></trkpt><trkpt lat="42.1563297" lon="12.7452931"><ele>190.0</ele><time>2026-03-28T09:15:10.84Z</time></trkpt><trkpt lat="42.1565049" lon="12.7452816"><ele>190.66666666666669</ele><time>2026-03-28T09:15:11.847Z</time></trkpt><trkpt lat="42.1566736" lon="12.7452764"><ele>191.33333333333334</ele><time>2026-03-28T09:15:12.844Z</time></trkpt><trkpt lat="42.1568318" lon="12.7452855"><ele>192.0</ele><time>2026-03-28T09:15:13.848Z</time></trkpt><trkpt lat="42.1569766" lon="12.7452921"><ele>192.0</ele><time>2026-03-28T09:15:14.845Z</time></trkpt><trkpt lat="42.1571125" lon="12.74529"><ele>192.0</ele><time>2026-03-28T09:15:15.844Z</time></trkpt><trkpt lat="42.1572307" lon="12.7452679"><ele>192.0</ele><time>2026-03-28T09:15:16.836Z</time></trkpt><trkpt lat="42.1573313" lon="12.7452217"><ele>192.0</ele><time>2026-03-28T09:15:17.84Z</time></trkpt><trkpt lat="42.1574132" lon="12.7451289"><ele>194.75</ele><time>2026-03-28T09:15:18.85Z</time></trkpt><trkpt lat="42.1574849" lon="12.7449814"><ele>197.5</ele><time>2026-03-28T09:15:19.839Z</time></trkpt><trkpt lat="42.1575402" lon="12.7448148"><ele>200.25</ele><time>2026-03-28T09:15:20.848Z</time></trkpt><trkpt lat="42.1576019" lon="12.7446339"><ele>203.0</ele><time>2026-03-28T09:15:21.847Z</time></trkpt><trkpt lat="42.157674" lon="12.7444358"><ele>204.0</ele><time>2026-03-28T09:15:22.851Z</time></trkpt><trkpt lat="42.157755" lon="12.7442539"><ele>205.0</ele><time>2026-03-28T09:15:23.849Z</time></trkpt><trkpt lat="42.1578339" lon="12.7440766"><ele>206.0</ele><time>2026-03-28T09:15:24.847Z</time></trkpt><trkpt lat="42.1579203" lon="12.7439"><ele>206.0</ele><time>2026-03-28T09:15:25.843Z</time></trkpt><trkpt lat="42.158009" lon="12.7437251"><ele>206.0</ele><time>2026-03-28T09:15:26.85Z</time></trkpt><trkpt lat="42.1580962" lon="12.7435514"><ele>206.0</ele><time>2026-03-28T09:15:27.852Z</time></trkpt><trkpt lat="42.1581902" lon="12.7433868"><ele>205.33333333333334</ele><time>2026-03-28T09:15:28.852Z</time></trkpt><trkpt lat="42.1582979" lon="12.7432338"><ele>204.66666666666669</ele><time>2026-03-28T09:15:29.85Z</time></trkpt><trkpt lat="42.1584172" lon="12.7430894"><ele>204.0</ele><time>2026-03-28T09:15:30.851Z</time></trkpt><trkpt lat="42.1585466" lon="12.7429654"><ele>204.0</ele><time>2026-03-28T09:15:31.847Z</time></trkpt><trkpt lat="42.1586927" lon="12.7428598"><ele>204.0</ele><time>2026-03-28T09:15:32.846Z</time></trkpt><trkpt lat="42.158845" lon="12.7427829"><ele>204.0</ele><time>2026-03-28T09:15:33.843Z</time></trkpt><trkpt lat="42.1590081" lon="12.7427246"><ele>204.66666666666669</ele><time>2026-03-28T09:15:34.853Z</time></trkpt><trkpt lat="42.159174" lon="12.7426847"><ele>205.33333333333334</ele><time>2026-03-28T09:15:35.842Z</time></trkpt><trkpt lat="42.1593424" lon="12.7426505"><ele>206.0</ele><time>2026-03-28T09:15:36.853Z</time></trkpt><trkpt lat="42.1595098" lon="12.7426227"><ele>206.0</ele><time>2026-03-28T09:15:37.844Z</time></trkpt><trkpt lat="42.1596835" lon="12.742603"><ele>206.0</ele><time>2026-03-28T09:15:38.85Z</time></trkpt><trkpt lat="42.1598523" lon="12.7425923"><ele>206.0</ele><time>2026-03-28T09:15:39.841Z</time></trkpt><trkpt lat="42.1600208" lon="12.7425968"><ele>205.66666666666669</ele><time>2026-03-28T09:15:40.84Z</time></trkpt><trkpt lat="42.1601889" lon="12.7426171"><ele>205.33333333333331</ele><time>2026-03-28T09:15:41.843Z</time></trkpt><trkpt lat="42.1603444" lon="12.7426493"><ele>205.0</ele><time>2026-03-28T09:15:42.851Z</time></trkpt><trkpt lat="42.1604945" lon="12.7426702"><ele>205.0</ele><time>2026-03-28T09:15:43.842Z</time></trkpt><trkpt lat="42.1606539" lon="12.7426614"><ele>205.0</ele><time>2026-03-28T09:15:44.853Z</time></trkpt><trkpt lat="42.1608282" lon="12.7426041"><ele>205.0</ele><time>2026-03-28T09:15:45.848Z</time></trkpt><trkpt lat="42.1610091" lon="12.7425248"><ele>205.0</ele><time>2026-03-28T09:15:46.85Z</time></trkpt><trkpt lat="42.1611765" lon="12.7424316"><ele>205.0</ele><time>2026-03-28T09:15:47.843Z</time></trkpt><trkpt lat="42.1613228" lon="12.7423365"><ele>205.0</ele><time>2026-03-28T09:15:48.847Z</time></trkpt><trkpt lat="42.1614607" lon="12.7422216"><ele>204.66666666666666</ele><time>2026-03-28T09:15:49.842Z</time></trkpt><trkpt lat="42.1615891" lon="12.7420944"><ele>204.33333333333331</ele><time>2026-03-28T09:15:50.843Z</time></trkpt><trkpt lat="42.1617183" lon="12.74197"><ele>204.0</ele><time>2026-03-28T09:15:51.843Z</time></trkpt><trkpt lat="42.1618425" lon="12.7418692"><ele>206.25</ele><time>2026-03-28T09:15:52.848Z</time></trkpt><trkpt lat="42.1619724" lon="12.741805"><ele>208.5</ele><time>2026-03-28T09:15:53.842Z</time></trkpt><trkpt lat="42.162105" lon="12.7417811"><ele>210.75</ele><time>2026-03-28T09:15:54.848Z</time></trkpt><trkpt lat="42.1622361" lon="12.7417726"><ele>213.0</ele><time>2026-03-28T09:15:55.846Z</time></trkpt><trkpt lat="42.1623715" lon="12.7417708"><ele>213.25</ele><time>2026-03-28T09:15:56.849Z</time></trkpt><trkpt lat="42.1625148" lon="12.7417873"><ele>213.5</ele><time>2026-03-28T09:15:57.845Z</time></trkpt><trkpt lat="42.1626604" lon="12.7418044"><ele>213.75</ele><time>2026-03-28T09:15:58.842Z</time></trkpt><trkpt lat="42.1627882" lon="12.7418446"><ele>214.0</ele><time>2026-03-28T09:15:59.851Z</time></trkpt><trkpt lat="42.1629083" lon="12.7418972"><ele>214.6</ele><time>2026-03-28T09:16:00.841Z</time></trkpt><trkpt lat="42.1630227" lon="12.7419612"><ele>215.2</ele><time>2026-03-28T09:16:01.846Z</time></trkpt><trkpt lat="42.1631186" lon="12.7420239"><ele>215.79999999999998</ele><time>2026-03-28T09:16:02.842Z</time></trkpt><trkpt lat="42.1632016" lon="12.7420963"><ele>216.39999999999998</ele><time>2026-03-28T09:16:03.839Z</time></trkpt><trkpt lat="42.163275" lon="12.7421665"><ele>217.0</ele><time>2026-03-28T09:16:04.837Z</time></trkpt><trkpt lat="42.1633335" lon="12.7422355"><ele>216.99999999999997</ele><time>2026-03-28T09:16:05.839Z</time></trkpt><trkpt lat="42.1633856" lon="12.7423053"><ele>217.0</ele><time>2026-03-28T09:16:06.84Z</time></trkpt><trkpt lat="42.1634503" lon="12.7423945"><ele>217.0</ele><time>2026-03-28T09:16:08.846Z</time></trkpt><trkpt lat="42.1635189" lon="12.7424404"><ele>217.0</ele><time>2026-03-28T09:16:12.846Z</time></trkpt><trkpt lat="42.1635805" lon="12.7424221"><ele>216.99999999999997</ele><time>2026-03-28T09:16:14.845Z</time></trkpt><trkpt lat="42.163629" lon="12.7423413"><ele>217.0</ele><time>2026-03-28T09:16:18.842Z</time></trkpt><trkpt lat="42.1636344" lon="12.7421978"><ele>217.0</ele><time>2026-03-28T09:16:20.844Z</time></trkpt><trkpt lat="42.1636189" lon="12.7420998"><ele>217.0</ele><time>2026-03-28T09:16:21.842Z</time></trkpt><trkpt lat="42.1635909" lon="12.7419876"><ele>217.0</ele><time>2026-03-28T09:16:22.849Z</time></trkpt><trkpt lat="42.1635615" lon="12.7418761"><ele>217.0</ele><time>2026-03-28T09:16:23.846Z</time></trkpt><trkpt lat="42.1635299" lon="12.7417523"><ele>217.0</ele><time>2026-03-28T09:16:24.844Z</time></trkpt><trkpt lat="42.163489" lon="12.74161"><ele>217.75</ele><time>2026-03-28T09:16:25.841Z</time></trkpt><trkpt lat="42.163434" lon="12.7414572"><ele>218.5</ele><time>2026-03-28T09:16:26.843Z</time></trkpt><trkpt lat="42.1633806" lon="12.7413049"><ele>219.25</ele><time>2026-03-28T09:16:27.859Z</time></trkpt><trkpt lat="42.1633268" lon="12.7411391"><ele>220.0</ele><time>2026-03-28T09:16:28.844Z</time></trkpt><trkpt lat="42.1632614" lon="12.740966"><ele>220.0</ele><time>2026-03-28T09:16:29.844Z</time></trkpt><trkpt lat="42.1631998" lon="12.7407915"><ele>220.0</ele><time>2026-03-28T09:16:30.847Z</time></trkpt><trkpt lat="42.1631383" lon="12.7406121"><ele>220.0</ele><time>2026-03-28T09:16:31.853Z</time></trkpt><trkpt lat="42.1630736" lon="12.7404204"><ele>220.0</ele><time>2026-03-28T09:16:32.845Z</time></trkpt><trkpt lat="42.1630142" lon="12.7402325"><ele>220.25</ele><time>2026-03-28T09:16:33.841Z</time></trkpt><trkpt lat="42.1629531" lon="12.7400481"><ele>220.5</ele><time>2026-03-28T09:16:34.844Z</time></trkpt><trkpt lat="42.1629045" lon="12.7398577"><ele>220.75</ele><time>2026-03-28T09:16:35.844Z</time></trkpt><trkpt lat="42.162873" lon="12.7396616"><ele>221.0</ele><time>2026-03-28T09:16:36.847Z</time></trkpt><trkpt lat="42.1628602" lon="12.7394458"><ele>220.66666666666669</ele><time>2026-03-28T09:16:37.843Z</time></trkpt><trkpt lat="42.1628471" lon="12.7392207"><ele>220.33333333333331</ele><time>2026-03-28T09:16:38.847Z</time></trkpt><trkpt lat="42.162826" lon="12.7390003"><ele>220.0</ele><time>2026-03-28T09:16:39.845Z</time></trkpt><trkpt lat="42.1628053" lon="12.7387824"><ele>220.0</ele><time>2026-03-28T09:16:40.841Z</time></trkpt><trkpt lat="42.1627933" lon="12.7385609"><ele>220.0</ele><time>2026-03-28T09:16:41.844Z</time></trkpt><trkpt lat="42.1627866" lon="12.7383408"><ele>220.0</ele><time>2026-03-28T09:16:42.842Z</time></trkpt><trkpt lat="42.1627808" lon="12.7381189"><ele>218.33333333333331</ele><time>2026-03-28T09:16:43.849Z</time></trkpt><trkpt lat="42.1627687" lon="12.7378935"><ele>216.66666666666669</ele><time>2026-03-28T09:16:44.852Z</time></trkpt><trkpt lat="42.1627588" lon="12.7376625"><ele>215.0</ele><time>2026-03-28T09:16:45.851Z</time></trkpt><trkpt lat="42.162751" lon="12.7374307"><ele>213.0</ele><time>2026-03-28T09:16:46.845Z</time></trkpt><trkpt lat="42.1627433" lon="12.7371914"><ele>211.0</ele><time>2026-03-28T09:16:47.848Z</time></trkpt><trkpt lat="42.1627319" lon="12.7369578"><ele>209.0</ele><time>2026-03-28T09:16:48.847Z</time></trkpt><trkpt lat="42.16272" lon="12.7367298"><ele>206.33333333333334</ele><time>2026-03-28T09:16:49.843Z</time></trkpt><trkpt lat="42.1627108" lon="12.7365003"><ele>203.66666666666669</ele><time>2026-03-28T09:16:50.846Z</time></trkpt><trkpt lat="42.1627022" lon="12.7362686"><ele>201.0</ele><time>2026-03-28T09:16:51.842Z</time></trkpt><trkpt lat="42.1626863" lon="12.73603"><ele>199.66666666666669</ele><time>2026-03-28T09:16:52.843Z</time></trkpt><trkpt lat="42.1626728" lon="12.7357838"><ele>198.33333333333334</ele><time>2026-03-28T09:16:53.852Z</time></trkpt><trkpt lat="42.1626596" lon="12.7355447"><ele>197.0</ele><time>2026-03-28T09:16:54.848Z</time></trkpt><trkpt lat="42.1626484" lon="12.7353021"><ele>196.0</ele><time>2026-03-28T09:16:55.838Z</time></trkpt><trkpt lat="42.1626388" lon="12.7350644"><ele>195.0</ele><time>2026-03-28T09:16:56.848Z</time></trkpt><trkpt lat="42.1626252" lon="12.7348361"><ele>194.0</ele><time>2026-03-28T09:16:57.849Z</time></trkpt><trkpt lat="42.1626125" lon="12.7345994"><ele>193.66666666666669</ele><time>2026-03-28T09:16:58.842Z</time></trkpt><trkpt lat="42.1626" lon="12.7343665"><ele>193.33333333333331</ele><time>2026-03-28T09:16:59.844Z</time></trkpt><trkpt lat="42.1625887" lon="12.7341382"><ele>193.0</ele><time>2026-03-28T09:17:00.847Z</time></trkpt><trkpt lat="42.1625766" lon="12.733908"><ele>193.0</ele><time>2026-03-28T09:17:01.844Z</time></trkpt><trkpt lat="42.1625609" lon="12.7336778"><ele>193.0</ele><time>2026-03-28T09:17:02.842Z</time></trkpt><trkpt lat="42.1625512" lon="12.7334463"><ele>193.0</ele><time>2026-03-28T09:17:03.845Z</time></trkpt><trkpt lat="42.1625446" lon="12.7332235"><ele>193.33333333333331</ele><time>2026-03-28T09:17:04.848Z</time></trkpt><trkpt lat="42.1625433" lon="12.7329947"><ele>193.66666666666669</ele><time>2026-03-28T09:17:05.841Z</time></trkpt><trkpt lat="42.162555" lon="12.7327738"><ele>194.0</ele><time>2026-03-28T09:17:06.849Z</time></trkpt><trkpt lat="42.162589" lon="12.7325423"><ele>193.33333333333334</ele><time>2026-03-28T09:17:07.85Z</time></trkpt><trkpt lat="42.1626393" lon="12.7323319"><ele>192.66666666666669</ele><time>2026-03-28T09:17:08.84Z</time></trkpt><trkpt lat="42.1627121" lon="12.7321366"><ele>192.0</ele><time>2026-03-28T09:17:09.853Z</time></trkpt><trkpt lat="42.1628031" lon="12.7319465"><ele>189.66666666666666</ele><time>2026-03-28T09:17:10.843Z</time></trkpt><trkpt lat="42.1629018" lon="12.7317455"><ele>187.33333333333331</ele><time>2026-03-28T09:17:11.841Z</time></trkpt><trkpt lat="42.1629971" lon="12.731544"><ele>185.0</ele><time>2026-03-28T09:17:12.844Z</time></trkpt><trkpt lat="42.1630955" lon="12.7313408"><ele>185.0</ele><time>2026-03-28T09:17:13.845Z</time></trkpt><trkpt lat="42.1631852" lon="12.7311384"><ele>185.0</ele><time>2026-03-28T09:17:14.85Z</time></trkpt><trkpt lat="42.1632703" lon="12.7309228"><ele>185.0</ele><time>2026-03-28T09:17:15.847Z</time></trkpt><trkpt lat="42.1633418" lon="12.7306866"><ele>185.0</ele><time>2026-03-28T09:17:16.842Z</time></trkpt><trkpt lat="42.1633958" lon="12.7304336"><ele>185.0</ele><time>2026-03-28T09:17:17.85Z</time></trkpt><trkpt lat="42.1634408" lon="12.7301812"><ele>185.0</ele><time>2026-03-28T09:17:18.851Z</time></trkpt><trkpt lat="42.1634831" lon="12.7299302"><ele>185.0</ele><time>2026-03-28T09:17:19.835Z</time></trkpt><trkpt lat="42.1635217" lon="12.7296839"><ele>185.0</ele><time>2026-03-28T09:17:20.856Z</time></trkpt><trkpt lat="42.1635575" lon="12.7294439"><ele>185.0</ele><time>2026-03-28T09:17:21.844Z</time></trkpt><trkpt lat="42.163591" lon="12.7292049"><ele>186.0</ele><time>2026-03-28T09:17:22.837Z</time></trkpt><trkpt lat="42.163627" lon="12.7289636"><ele>187.0</ele><time>2026-03-28T09:17:23.841Z</time></trkpt><trkpt lat="42.1636669" lon="12.7287274"><ele>188.0</ele><time>2026-03-28T09:17:24.85Z</time></trkpt><trkpt lat="42.1637084" lon="12.7284836"><ele>188.33333333333331</ele><time>2026-03-28T09:17:25.842Z</time></trkpt><trkpt lat="42.1637402" lon="12.7282511"><ele>188.66666666666666</ele><time>2026-03-28T09:17:26.852Z</time></trkpt><trkpt lat="42.1637711" lon="12.7280226"><ele>189.0</ele><time>2026-03-28T09:17:27.843Z</time></trkpt><trkpt lat="42.1638036" lon="12.727787"><ele>189.66666666666666</ele><time>2026-03-28T09:17:28.856Z</time></trkpt><trkpt lat="42.1638211" lon="12.7275384"><ele>190.33333333333331</ele><time>2026-03-28T09:17:29.844Z</time></trkpt><trkpt lat="42.1638273" lon="12.727273"><ele>191.0</ele><time>2026-03-28T09:17:30.838Z</time></trkpt><trkpt lat="42.1638206" lon="12.7269999"><ele>189.66666666666666</ele><time>2026-03-28T09:17:31.842Z</time></trkpt><trkpt lat="42.1637999" lon="12.7267363"><ele>188.33333333333334</ele><time>2026-03-28T09:17:32.849Z</time></trkpt><trkpt lat="42.1637679" lon="12.7265027"><ele>187.0</ele><time>2026-03-28T09:17:33.847Z</time></trkpt><trkpt lat="42.1637229" lon="12.7262811"><ele>187.0</ele><time>2026-03-28T09:17:34.84Z</time></trkpt><trkpt lat="42.1636642" lon="12.7260673"><ele>187.0</ele><time>2026-03-28T09:17:35.839Z</time></trkpt><trkpt lat="42.1635993" lon="12.7258712"><ele>187.0</ele><time>2026-03-28T09:17:36.849Z</time></trkpt><trkpt lat="42.163541" lon="12.7256909"><ele>183.5</ele><time>2026-03-28T09:17:37.837Z</time></trkpt><trkpt lat="42.163482" lon="12.7255165"><ele>180.0</ele><time>2026-03-28T09:17:38.858Z</time></trkpt><trkpt lat="42.1634355" lon="12.7253674"><ele>176.5</ele><time>2026-03-28T09:17:39.847Z</time></trkpt><trkpt lat="42.1634045" lon="12.7252503"><ele>173.0</ele><time>2026-03-28T09:17:40.843Z</time></trkpt><trkpt lat="42.1634333" lon="12.7251104"><ele>172.2</ele><time>2026-03-28T09:17:42.847Z</time></trkpt><trkpt lat="42.1635564" lon="12.7250665"><ele>171.4</ele><time>2026-03-28T09:17:44.841Z</time></trkpt><trkpt lat="42.1636396" lon="12.725057"><ele>170.6</ele><time>2026-03-28T09:17:45.843Z</time></trkpt><trkpt lat="42.1637408" lon="12.7250524"><ele>169.79999999999998</ele><time>2026-03-28T09:17:46.841Z</time></trkpt><trkpt lat="42.1638505" lon="12.725052"><ele>169.0</ele><time>2026-03-28T09:17:47.84Z</time></trkpt><trkpt lat="42.163969" lon="12.7250709"><ele>169.5</ele><time>2026-03-28T09:17:48.842Z</time></trkpt><trkpt lat="42.1640861" lon="12.7251199"><ele>170.0</ele><time>2026-03-28T09:17:49.847Z</time></trkpt><trkpt lat="42.1641978" lon="12.7251931"><ele>170.5</ele><time>2026-03-28T09:17:50.846Z</time></trkpt><trkpt lat="42.164324" lon="12.7252193"><ele>171.0</ele><time>2026-03-28T09:17:51.85Z</time></trkpt><trkpt lat="42.1644527" lon="12.7251875"><ele>171.0</ele><time>2026-03-28T09:17:52.839Z</time></trkpt><trkpt lat="42.164586" lon="12.7251349"><ele>171.0</ele><time>2026-03-28T09:17:53.845Z</time></trkpt><trkpt lat="42.1647252" lon="12.7250584"><ele>171.0</ele><time>2026-03-28T09:17:54.851Z</time></trkpt><trkpt lat="42.164847" lon="12.7249635"><ele>171.0</ele><time>2026-03-28T09:17:55.843Z</time></trkpt><trkpt lat="42.1649586" lon="12.7248367"><ele>169.5</ele><time>2026-03-28T09:17:56.849Z</time></trkpt><trkpt lat="42.1650497" lon="12.7246794"><ele>168.0</ele><time>2026-03-28T09:17:57.841Z</time></trkpt><trkpt lat="42.1651078" lon="12.7245047"><ele>166.5</ele><time>2026-03-28T09:17:58.854Z</time></trkpt><trkpt lat="42.1651504" lon="12.7243197"><ele>165.0</ele><time>2026-03-28T09:17:59.843Z</time></trkpt><trkpt lat="42.1651596" lon="12.7241227"><ele>165.0</ele><time>2026-03-28T09:18:00.855Z</time></trkpt><trkpt lat="42.1651432" lon="12.7239125"><ele>165.0</ele><time>2026-03-28T09:18:01.84Z</time></trkpt><trkpt lat="42.1651008" lon="12.7236948"><ele>165.0</ele><time>2026-03-28T09:18:02.838Z</time></trkpt><trkpt lat="42.1650548" lon="12.7234874"><ele>164.25</ele><time>2026-03-28T09:18:03.849Z</time></trkpt><trkpt lat="42.1650073" lon="12.7232969"><ele>163.5</ele><time>2026-03-28T09:18:04.852Z</time></trkpt><trkpt lat="42.1649649" lon="12.723118"><ele>162.75</ele><time>2026-03-28T09:18:05.84Z</time></trkpt><trkpt lat="42.1649292" lon="12.7229383"><ele>162.0</ele><time>2026-03-28T09:18:06.843Z</time></trkpt><trkpt lat="42.1649111" lon="12.7227507"><ele>160.75</ele><time>2026-03-28T09:18:07.847Z</time></trkpt><trkpt lat="42.1649085" lon="12.7225545"><ele>159.5</ele><time>2026-03-28T09:18:08.846Z</time></trkpt><trkpt lat="42.1649189" lon="12.7223597"><ele>158.25</ele><time>2026-03-28T09:18:09.857Z</time></trkpt><trkpt lat="42.1649581" lon="12.7221619"><ele>157.0</ele><time>2026-03-28T09:18:10.842Z</time></trkpt><trkpt lat="42.1650251" lon="12.7219711"><ele>158.33333333333334</ele><time>2026-03-28T09:18:11.846Z</time></trkpt><trkpt lat="42.165126" lon="12.7217873"><ele>159.66666666666666</ele><time>2026-03-28T09:18:12.842Z</time></trkpt><trkpt lat="42.1652399" lon="12.7216115"><ele>161.0</ele><time>2026-03-28T09:18:13.835Z</time></trkpt><trkpt lat="42.1653703" lon="12.7214517"><ele>161.0</ele><time>2026-03-28T09:18:14.848Z</time></trkpt><trkpt lat="42.1655059" lon="12.7213211"><ele>161.0</ele><time>2026-03-28T09:18:15.846Z</time></trkpt><trkpt lat="42.1656413" lon="12.721231"><ele>161.0</ele><time>2026-03-28T09:18:16.848Z</time></trkpt><trkpt lat="42.1657898" lon="12.721171"><ele>157.0</ele><time>2026-03-28T09:18:17.845Z</time></trkpt><trkpt lat="42.1659416" lon="12.7211605"><ele>153.0</ele><time>2026-03-28T09:18:18.843Z</time></trkpt><trkpt lat="42.1660984" lon="12.7211573"><ele>149.0</ele><time>2026-03-28T09:18:19.838Z</time></trkpt><trkpt lat="42.1662464" lon="12.7211517"><ele>149.0</ele><time>2026-03-28T09:18:20.847Z</time></trkpt><trkpt lat="42.1663579" lon="12.7210779"><ele>149.0</ele><time>2026-03-28T09:18:21.845Z</time></trkpt><trkpt lat="42.166463" lon="12.7209381"><ele>149.0</ele><time>2026-03-28T09:18:22.847Z</time></trkpt><trkpt lat="42.1665625" lon="12.7207451"><ele>149.0</ele><time>2026-03-28T09:18:23.836Z</time></trkpt><trkpt lat="42.1666719" lon="12.720537"><ele>147.33333333333331</ele><time>2026-03-28T09:18:24.842Z</time></trkpt><trkpt lat="42.1668069" lon="12.7203193"><ele>145.66666666666666</ele><time>2026-03-28T09:18:25.839Z</time></trkpt><trkpt lat="42.1669411" lon="12.7201118"><ele>144.0</ele><time>2026-03-28T09:18:26.84Z</time></trkpt><trkpt lat="42.1670779" lon="12.7199099"><ele>143.66666666666666</ele><time>2026-03-28T09:18:27.838Z</time></trkpt><trkpt lat="42.1672264" lon="12.7197167"><ele>143.33333333333331</ele><time>2026-03-28T09:18:28.85Z</time></trkpt><trkpt lat="42.167378" lon="12.71954"><ele>143.0</ele><time>2026-03-28T09:18:29.843Z</time></trkpt><trkpt lat="42.1675199" lon="12.7193709"><ele>143.0</ele><time>2026-03-28T09:18:30.842Z</time></trkpt><trkpt lat="42.1676526" lon="12.7192379"><ele>143.0</ele><time>2026-03-28T09:18:31.837Z</time></trkpt><trkpt lat="42.1677813" lon="12.7191527"><ele>143.0</ele><time>2026-03-28T09:18:32.842Z</time></trkpt><trkpt lat="42.1679125" lon="12.7190933"><ele>143.0</ele><time>2026-03-28T09:18:33.851Z</time></trkpt><trkpt lat="42.1680422" lon="12.7190771"><ele>143.0</ele><time>2026-03-28T09:18:34.843Z</time></trkpt><trkpt lat="42.1681679" lon="12.7190648"><ele>143.0</ele><time>2026-03-28T09:18:35.839Z</time></trkpt><trkpt lat="42.1683008" lon="12.7190276"><ele>143.0</ele><time>2026-03-28T09:18:36.84Z</time></trkpt><trkpt lat="42.1684236" lon="12.7189597"><ele>143.0</ele><time>2026-03-28T09:18:37.85Z</time></trkpt><trkpt lat="42.1685336" lon="12.7188639"><ele>140.4</ele><time>2026-03-28T09:18:38.846Z</time></trkpt><trkpt lat="42.168631" lon="12.718776"><ele>137.8</ele><time>2026-03-28T09:18:39.853Z</time></trkpt><trkpt lat="42.1687236" lon="12.718733"><ele>135.2</ele><time>2026-03-28T09:18:40.853Z</time></trkpt><trkpt lat="42.1688178" lon="12.7187296"><ele>132.6</ele><time>2026-03-28T09:18:41.847Z</time></trkpt><trkpt lat="42.1689076" lon="12.7187849"><ele>130.0</ele><time>2026-03-28T09:18:42.845Z</time></trkpt><trkpt lat="42.1689804" lon="12.7188669"><ele>128.0</ele><time>2026-03-28T09:18:43.845Z</time></trkpt><trkpt lat="42.1690611" lon="12.7189861"><ele>126.0</ele><time>2026-03-28T09:18:44.839Z</time></trkpt><trkpt lat="42.1691526" lon="12.7191087"><ele>124.0</ele><time>2026-03-28T09:18:45.851Z</time></trkpt><trkpt lat="42.1692418" lon="12.7192365"><ele>122.0</ele><time>2026-03-28T09:18:46.842Z</time></trkpt><trkpt lat="42.1693261" lon="12.719362"><ele>121.75</ele><time>2026-03-28T09:18:47.848Z</time></trkpt><trkpt lat="42.1694071" lon="12.7194832"><ele>121.5</ele><time>2026-03-28T09:18:48.85Z</time></trkpt><trkpt lat="42.1694928" lon="12.7196003"><ele>121.25</ele><time>2026-03-28T09:18:49.844Z</time></trkpt><trkpt lat="42.169575" lon="12.7197161"><ele>121.0</ele><time>2026-03-28T09:18:50.838Z</time></trkpt><trkpt lat="42.1696569" lon="12.7198253"><ele>121.0</ele><time>2026-03-28T09:18:51.842Z</time></trkpt><trkpt lat="42.1697355" lon="12.7199386"><ele>121.0</ele><time>2026-03-28T09:18:52.85Z</time></trkpt><trkpt lat="42.1698165" lon="12.7200443"><ele>121.0</ele><time>2026-03-28T09:18:53.838Z</time></trkpt><trkpt lat="42.1699" lon="12.7201481"><ele>121.0</ele><time>2026-03-28T09:18:54.854Z</time></trkpt><trkpt lat="42.1699814" lon="12.7202371"><ele>121.0</ele><time>2026-03-28T09:18:55.845Z</time></trkpt><trkpt lat="42.1700694" lon="12.7203029"><ele>121.19999999999999</ele><time>2026-03-28T09:18:56.843Z</time></trkpt><trkpt lat="42.1701604" lon="12.720329"><ele>121.39999999999999</ele><time>2026-03-28T09:18:57.846Z</time></trkpt><trkpt lat="42.170264" lon="12.7203334"><ele>121.6</ele><time>2026-03-28T09:18:58.842Z</time></trkpt><trkpt lat="42.1703608" lon="12.7203183"><ele>121.8</ele><time>2026-03-28T09:18:59.841Z</time></trkpt><trkpt lat="42.1704634" lon="12.7202713"><ele>122.0</ele><time>2026-03-28T09:19:00.84Z</time></trkpt><trkpt lat="42.1705694" lon="12.7202029"><ele>122.0</ele><time>2026-03-28T09:19:01.843Z</time></trkpt><trkpt lat="42.1706834" lon="12.7201231"><ele>122.0</ele><time>2026-03-28T09:19:02.845Z</time></trkpt><trkpt lat="42.1707902" lon="12.7200326"><ele>122.0</ele><time>2026-03-28T09:19:03.852Z</time></trkpt><trkpt lat="42.1708956" lon="12.7199367"><ele>122.0</ele><time>2026-03-28T09:19:04.844Z</time></trkpt><trkpt lat="42.1709925" lon="12.7198138"><ele>123.75</ele><time>2026-03-28T09:19:05.838Z</time></trkpt><trkpt lat="42.1710582" lon="12.719666"><ele>125.5</ele><time>2026-03-28T09:19:06.84Z</time></trkpt><trkpt lat="42.1711037" lon="12.7195113"><ele>127.25</ele><time>2026-03-28T09:19:07.84Z</time></trkpt><trkpt lat="42.1711319" lon="12.7193514"><ele>129.0</ele><time>2026-03-28T09:19:08.849Z</time></trkpt><trkpt lat="42.1711745" lon="12.719187"><ele>129.0</ele><time>2026-03-28T09:19:09.842Z</time></trkpt><trkpt lat="42.171245" lon="12.719026"><ele>129.0</ele><time>2026-03-28T09:19:10.845Z</time></trkpt><trkpt lat="42.1713371" lon="12.7189013"><ele>129.0</ele><time>2026-03-28T09:19:11.84Z</time></trkpt><trkpt lat="42.1714443" lon="12.7188217"><ele>129.0</ele><time>2026-03-28T09:19:12.839Z</time></trkpt><trkpt lat="42.1715725" lon="12.7187867"><ele>131.66666666666666</ele><time>2026-03-28T09:19:13.85Z</time></trkpt><trkpt lat="42.1717224" lon="12.7187922"><ele>134.33333333333331</ele><time>2026-03-28T09:19:14.841Z</time></trkpt><trkpt lat="42.1718841" lon="12.718792"><ele>137.0</ele><time>2026-03-28T09:19:15.847Z</time></trkpt><trkpt lat="42.1720352" lon="12.7188297"><ele>137.0</ele><time>2026-03-28T09:19:16.856Z</time></trkpt><trkpt lat="42.1721765" lon="12.7188764"><ele>137.0</ele><time>2026-03-28T09:19:17.846Z</time></trkpt><trkpt lat="42.1723067" lon="12.7189788"><ele>137.0</ele><time>2026-03-28T09:19:18.847Z</time></trkpt><trkpt lat="42.1724362" lon="12.7191018"><ele>136.33333333333331</ele><time>2026-03-28T09:19:19.842Z</time></trkpt><trkpt lat="42.172553" lon="12.7192854"><ele>135.66666666666666</ele><time>2026-03-28T09:19:20.844Z</time></trkpt><trkpt lat="42.1726827" lon="12.7194853"><ele>135.0</ele><time>2026-03-28T09:19:21.843Z</time></trkpt><trkpt lat="42.1727735" lon="12.7197088"><ele>139.0</ele><time>2026-03-28T09:19:22.846Z</time></trkpt><trkpt lat="42.1728403" lon="12.7199489"><ele>143.0</ele><time>2026-03-28T09:19:23.848Z</time></trkpt><trkpt lat="42.1728931" lon="12.720191"><ele>147.0</ele><time>2026-03-28T09:19:24.85Z</time></trkpt><trkpt lat="42.1729435" lon="12.720413"><ele>150.66666666666666</ele><time>2026-03-28T09:19:25.838Z</time></trkpt><trkpt lat="42.1729901" lon="12.720628"><ele>154.33333333333331</ele><time>2026-03-28T09:19:26.853Z</time></trkpt><trkpt lat="42.1730326" lon="12.720818"><ele>158.0</ele><time>2026-03-28T09:19:27.85Z</time></trkpt><trkpt lat="42.1731111" lon="12.7209733"><ele>152.66666666666666</ele><time>2026-03-28T09:19:28.841Z</time></trkpt><trkpt lat="42.1732369" lon="12.7210969"><ele>147.33333333333334</ele><time>2026-03-28T09:19:29.851Z</time></trkpt><trkpt lat="42.1733721" lon="12.7212263"><ele>142.0</ele><time>2026-03-28T09:19:30.861Z</time></trkpt><trkpt lat="42.1735052" lon="12.7214066"><ele>142.0</ele><time>2026-03-28T09:19:31.84Z</time></trkpt><trkpt lat="42.1736486" lon="12.7215801"><ele>142.0</ele><time>2026-03-28T09:19:32.855Z</time></trkpt><trkpt lat="42.173786" lon="12.7217596"><ele>142.0</ele><time>2026-03-28T09:19:33.844Z</time></trkpt><trkpt lat="42.1739056" lon="12.7219866"><ele>145.0</ele><time>2026-03-28T09:19:34.839Z</time></trkpt><trkpt lat="42.1740369" lon="12.7221976"><ele>148.0</ele><time>2026-03-28T09:19:35.845Z</time></trkpt><trkpt lat="42.1741748" lon="12.7224052"><ele>151.0</ele><time>2026-03-28T09:19:36.848Z</time></trkpt><trkpt lat="42.1743101" lon="12.7226096"><ele>154.33333333333334</ele><time>2026-03-28T09:19:37.844Z</time></trkpt><trkpt lat="42.17445" lon="12.7228097"><ele>157.66666666666666</ele><time>2026-03-28T09:19:38.847Z</time></trkpt><trkpt lat="42.1745891" lon="12.7230029"><ele>161.0</ele><time>2026-03-28T09:19:39.844Z</time></trkpt><trkpt lat="42.1747277" lon="12.7232079"><ele>158.66666666666666</ele><time>2026-03-28T09:19:40.843Z</time></trkpt><trkpt lat="42.1748592" lon="12.7234202"><ele>156.33333333333334</ele><time>2026-03-28T09:19:41.84Z</time></trkpt><trkpt lat="42.1749893" lon="12.7236097"><ele>154.0</ele><time>2026-03-28T09:19:42.848Z</time></trkpt><trkpt lat="42.1751365" lon="12.7237684"><ele>158.66666666666669</ele><time>2026-03-28T09:19:43.84Z</time></trkpt><trkpt lat="42.1752938" lon="12.7239133"><ele>163.33333333333334</ele><time>2026-03-28T09:19:44.845Z</time></trkpt><trkpt lat="42.1754715" lon="12.7240455"><ele>168.0</ele><time>2026-03-28T09:19:45.842Z</time></trkpt><trkpt lat="42.1756341" lon="12.7241779"><ele>168.33333333333334</ele><time>2026-03-28T09:19:46.844Z</time></trkpt><trkpt lat="42.175795" lon="12.7243411"><ele>168.66666666666669</ele><time>2026-03-28T09:19:47.856Z</time></trkpt><trkpt lat="42.1759502" lon="12.7245198"><ele>169.0</ele><time>2026-03-28T09:19:48.842Z</time></trkpt><trkpt lat="42.1760986" lon="12.7246939"><ele>169.0</ele><time>2026-03-28T09:19:49.853Z</time></trkpt><trkpt lat="42.1762431" lon="12.7248743"><ele>169.0</ele><time>2026-03-28T09:19:50.845Z</time></trkpt><trkpt lat="42.1763775" lon="12.7250645"><ele>169.0</ele><time>2026-03-28T09:19:51.846Z</time></trkpt><trkpt lat="42.1765146" lon="12.725265"><ele>169.66666666666669</ele><time>2026-03-28T09:19:52.843Z</time></trkpt><trkpt lat="42.1766525" lon="12.7254795"><ele>170.33333333333334</ele><time>2026-03-28T09:19:53.848Z</time></trkpt><trkpt lat="42.1767872" lon="12.725695"><ele>171.0</ele><time>2026-03-28T09:19:54.852Z</time></trkpt><trkpt lat="42.1769203" lon="12.7259135"><ele>174.66666666666666</ele><time>2026-03-28T09:19:55.848Z</time></trkpt><trkpt lat="42.1770616" lon="12.7261258"><ele>178.33333333333331</ele><time>2026-03-28T09:19:56.843Z</time></trkpt><trkpt lat="42.1772014" lon="12.7263356"><ele>182.0</ele><time>2026-03-28T09:19:57.839Z</time></trkpt><trkpt lat="42.1773399" lon="12.7265463"><ele>183.0</ele><time>2026-03-28T09:19:58.844Z</time></trkpt><trkpt lat="42.1774799" lon="12.726762"><ele>184.0</ele><time>2026-03-28T09:19:59.843Z</time></trkpt><trkpt lat="42.1776214" lon="12.7269663"><ele>185.0</ele><time>2026-03-28T09:20:00.847Z</time></trkpt><trkpt lat="42.1777626" lon="12.7271671"><ele>185.0</ele><time>2026-03-28T09:20:01.842Z</time></trkpt><trkpt lat="42.1779005" lon="12.7273631"><ele>185.0</ele><time>2026-03-28T09:20:02.842Z</time></trkpt><trkpt lat="42.1780315" lon="12.7275523"><ele>185.0</ele><time>2026-03-28T09:20:03.849Z</time></trkpt><trkpt lat="42.1781471" lon="12.727731"><ele>185.0</ele><time>2026-03-28T09:20:04.852Z</time></trkpt><trkpt lat="42.1782562" lon="12.7279187"><ele>185.0</ele><time>2026-03-28T09:20:05.848Z</time></trkpt><trkpt lat="42.1783609" lon="12.7281176"><ele>185.0</ele><time>2026-03-28T09:20:06.835Z</time></trkpt><trkpt lat="42.1784537" lon="12.7283128"><ele>185.0</ele><time>2026-03-28T09:20:07.848Z</time></trkpt><trkpt lat="42.1785243" lon="12.7284836"><ele>185.0</ele><time>2026-03-28T09:20:08.837Z</time></trkpt><trkpt lat="42.1785962" lon="12.7286156"><ele>185.0</ele><time>2026-03-28T09:20:09.855Z</time></trkpt><trkpt lat="42.1786672" lon="12.728723"><ele>185.0</ele><time>2026-03-28T09:20:10.849Z</time></trkpt><trkpt lat="42.1787646" lon="12.7287452"><ele>185.25</ele><time>2026-03-28T09:20:11.85Z</time></trkpt><trkpt lat="42.178867" lon="12.7287202"><ele>185.5</ele><time>2026-03-28T09:20:12.851Z</time></trkpt><trkpt lat="42.1789736" lon="12.7286417"><ele>185.75</ele><time>2026-03-28T09:20:13.845Z</time></trkpt><trkpt lat="42.1790582" lon="12.7285048"><ele>186.0</ele><time>2026-03-28T09:20:14.845Z</time></trkpt><trkpt lat="42.1791335" lon="12.7283919"><ele>186.0</ele><time>2026-03-28T09:20:15.852Z</time></trkpt><trkpt lat="42.1792482" lon="12.7283329"><ele>186.0</ele><time>2026-03-28T09:20:16.843Z</time></trkpt><trkpt lat="42.1794001" lon="12.7283338"><ele>186.0</ele><time>2026-03-28T09:20:17.845Z</time></trkpt><trkpt lat="42.1795624" lon="12.7283556"><ele>186.0</ele><time>2026-03-28T09:20:18.848Z</time></trkpt><trkpt lat="42.179724" lon="12.728373"><ele>187.0</ele><time>2026-03-28T09:20:19.849Z</time></trkpt><trkpt lat="42.1799001" lon="12.7284116"><ele>188.0</ele><time>2026-03-28T09:20:20.841Z</time></trkpt><trkpt lat="42.1800868" lon="12.7284375"><ele>189.0</ele><time>2026-03-28T09:20:21.843Z</time></trkpt><trkpt lat="42.1802808" lon="12.7284898"><ele>194.0</ele><time>2026-03-28T09:20:22.847Z</time></trkpt><trkpt lat="42.1804671" lon="12.7285686"><ele>199.0</ele><time>2026-03-28T09:20:23.839Z</time></trkpt><trkpt lat="42.1806439" lon="12.7286471"><ele>204.0</ele><time>2026-03-28T09:20:24.847Z</time></trkpt><trkpt lat="42.1808141" lon="12.7287226"><ele>204.66666666666669</ele><time>2026-03-28T09:20:25.842Z</time></trkpt><trkpt lat="42.1809903" lon="12.728803"><ele>205.33333333333334</ele><time>2026-03-28T09:20:26.846Z</time></trkpt><trkpt lat="42.1811668" lon="12.7288921"><ele>206.0</ele><time>2026-03-28T09:20:27.843Z</time></trkpt><trkpt lat="42.1813455" lon="12.7290073"><ele>205.66666666666669</ele><time>2026-03-28T09:20:28.85Z</time></trkpt><trkpt lat="42.1815273" lon="12.7291484"><ele>205.33333333333331</ele><time>2026-03-28T09:20:29.845Z</time></trkpt><trkpt lat="42.1817045" lon="12.7292957"><ele>205.0</ele><time>2026-03-28T09:20:30.841Z</time></trkpt><trkpt lat="42.1818848" lon="12.7294341"><ele>207.0</ele><time>2026-03-28T09:20:31.844Z</time></trkpt><trkpt lat="42.1820663" lon="12.7295845"><ele>209.0</ele><time>2026-03-28T09:20:32.851Z</time></trkpt><trkpt lat="42.1822373" lon="12.7297331"><ele>211.0</ele><time>2026-03-28T09:20:33.843Z</time></trkpt><trkpt lat="42.1823944" lon="12.7298638"><ele>211.0</ele><time>2026-03-28T09:20:34.843Z</time></trkpt><trkpt lat="42.1825405" lon="12.7299801"><ele>211.0</ele><time>2026-03-28T09:20:35.847Z</time></trkpt><trkpt lat="42.1826661" lon="12.730104"><ele>211.0</ele><time>2026-03-28T09:20:36.842Z</time></trkpt><trkpt lat="42.182781" lon="12.7302586"><ele>215.33333333333331</ele><time>2026-03-28T09:20:37.84Z</time></trkpt><trkpt lat="42.1828814" lon="12.730425"><ele>219.66666666666669</ele><time>2026-03-28T09:20:38.851Z</time></trkpt><trkpt lat="42.1829628" lon="12.7306163"><ele>224.0</ele><time>2026-03-28T09:20:39.849Z</time></trkpt><trkpt lat="42.183022" lon="12.7307968"><ele>224.0</ele><time>2026-03-28T09:20:40.854Z</time></trkpt><trkpt lat="42.1830635" lon="12.730962"><ele>224.0</ele><time>2026-03-28T09:20:41.845Z</time></trkpt><trkpt lat="42.1831089" lon="12.731096"><ele>224.0</ele><time>2026-03-28T09:20:42.843Z</time></trkpt><trkpt lat="42.1831733" lon="12.7312164"><ele>224.0</ele><time>2026-03-28T09:20:43.853Z</time></trkpt><trkpt lat="42.1832592" lon="12.7313314"><ele>224.75</ele><time>2026-03-28T09:20:44.844Z</time></trkpt><trkpt lat="42.1833617" lon="12.7314543"><ele>225.5</ele><time>2026-03-28T09:20:45.847Z</time></trkpt><trkpt lat="42.1834737" lon="12.7315853"><ele>226.25</ele><time>2026-03-28T09:20:46.85Z</time></trkpt><trkpt lat="42.1835833" lon="12.7317283"><ele>227.0</ele><time>2026-03-28T09:20:47.844Z</time></trkpt><trkpt lat="42.1836816" lon="12.7318816"><ele>228.75</ele><time>2026-03-28T09:20:48.841Z</time></trkpt><trkpt lat="42.1837578" lon="12.7320428"><ele>230.5</ele><time>2026-03-28T09:20:49.845Z</time></trkpt><trkpt lat="42.1838215" lon="12.7322242"><ele>232.25</ele><time>2026-03-28T09:20:50.848Z</time></trkpt><trkpt lat="42.1838688" lon="12.732421"><ele>234.0</ele><time>2026-03-28T09:20:51.842Z</time></trkpt><trkpt lat="42.1839057" lon="12.732633"><ele>233.75</ele><time>2026-03-28T09:20:52.842Z</time></trkpt><trkpt lat="42.1839452" lon="12.7328401"><ele>233.5</ele><time>2026-03-28T09:20:53.846Z</time></trkpt><trkpt lat="42.1839808" lon="12.7330312"><ele>233.25</ele><time>2026-03-28T09:20:54.841Z</time></trkpt><trkpt lat="42.1840122" lon="12.7332146"><ele>233.0</ele><time>2026-03-28T09:20:55.855Z</time></trkpt><trkpt lat="42.1840442" lon="12.7333965"><ele>234.25</ele><time>2026-03-28T09:20:56.844Z</time></trkpt><trkpt lat="42.1840736" lon="12.7335845"><ele>235.5</ele><time>2026-03-28T09:20:57.841Z</time></trkpt><trkpt lat="42.1841174" lon="12.7337591"><ele>236.75</ele><time>2026-03-28T09:20:58.854Z</time></trkpt><trkpt lat="42.184171" lon="12.7339039"><ele>238.0</ele><time>2026-03-28T09:20:59.853Z</time></trkpt><trkpt lat="42.1842541" lon="12.7340152"><ele>238.0</ele><time>2026-03-28T09:21:00.845Z</time></trkpt><trkpt lat="42.1843606" lon="12.7341093"><ele>238.0</ele><time>2026-03-28T09:21:01.845Z</time></trkpt><trkpt lat="42.1844824" lon="12.7341898"><ele>238.0</ele><time>2026-03-28T09:21:02.842Z</time></trkpt><trkpt lat="42.1846138" lon="12.7342688"><ele>238.0</ele><time>2026-03-28T09:21:03.851Z</time></trkpt><trkpt lat="42.1847278" lon="12.7343448"><ele>237.4</ele><time>2026-03-28T09:21:04.852Z</time></trkpt><trkpt lat="42.1848256" lon="12.7344157"><ele>236.8</ele><time>2026-03-28T09:21:05.847Z</time></trkpt><trkpt lat="42.1849207" lon="12.7344869"><ele>236.2</ele><time>2026-03-28T09:21:06.848Z</time></trkpt><trkpt lat="42.1850143" lon="12.7345547"><ele>235.6</ele><time>2026-03-28T09:21:07.848Z</time></trkpt><trkpt lat="42.1851144" lon="12.7346264"><ele>235.0</ele><time>2026-03-28T09:21:08.837Z</time></trkpt><trkpt lat="42.1852196" lon="12.7346957"><ele>235.0</ele><time>2026-03-28T09:21:09.848Z</time></trkpt><trkpt lat="42.1853306" lon="12.7347665"><ele>235.0</ele><time>2026-03-28T09:21:10.843Z</time></trkpt><trkpt lat="42.1854409" lon="12.7348479"><ele>235.0</ele><time>2026-03-28T09:21:11.843Z</time></trkpt><trkpt lat="42.1855487" lon="12.734925"><ele>235.0</ele><time>2026-03-28T09:21:12.842Z</time></trkpt><trkpt lat="42.1856569" lon="12.7350022"><ele>235.8</ele><time>2026-03-28T09:21:13.842Z</time></trkpt><trkpt lat="42.185753" lon="12.7350743"><ele>236.6</ele><time>2026-03-28T09:21:14.842Z</time></trkpt><trkpt lat="42.1858396" lon="12.7351307"><ele>237.39999999999998</ele><time>2026-03-28T09:21:15.846Z</time></trkpt><trkpt lat="42.185911" lon="12.7351994"><ele>238.2</ele><time>2026-03-28T09:21:16.846Z</time></trkpt><trkpt lat="42.1859752" lon="12.735297"><ele>239.0</ele><time>2026-03-28T09:21:17.852Z</time></trkpt><trkpt lat="42.1860282" lon="12.7354457"><ele>239.75</ele><time>2026-03-28T09:21:18.84Z</time></trkpt><trkpt lat="42.1860565" lon="12.7356173"><ele>240.5</ele><time>2026-03-28T09:21:19.854Z</time></trkpt><trkpt lat="42.1860895" lon="12.7357937"><ele>241.25</ele><time>2026-03-28T09:21:20.839Z</time></trkpt><trkpt lat="42.1861261" lon="12.7359685"><ele>242.0</ele><time>2026-03-28T09:21:21.842Z</time></trkpt><trkpt lat="42.1861643" lon="12.7361396"><ele>243.5</ele><time>2026-03-28T09:21:22.839Z</time></trkpt><trkpt lat="42.1861987" lon="12.7363144"><ele>245.0</ele><time>2026-03-28T09:21:23.845Z</time></trkpt><trkpt lat="42.1862288" lon="12.7364845"><ele>246.5</ele><time>2026-03-28T09:21:24.84Z</time></trkpt><trkpt lat="42.1862651" lon="12.7366499"><ele>248.0</ele><time>2026-03-28T09:21:25.841Z</time></trkpt><trkpt lat="42.1862972" lon="12.7368116"><ele>248.2</ele><time>2026-03-28T09:21:26.848Z</time></trkpt><trkpt lat="42.1863192" lon="12.7369604"><ele>248.4</ele><time>2026-03-28T09:21:27.846Z</time></trkpt><trkpt lat="42.1863265" lon="12.7370961"><ele>248.59999999999997</ele><time>2026-03-28T09:21:28.85Z</time></trkpt><trkpt lat="42.1863128" lon="12.7372299"><ele>248.79999999999998</ele><time>2026-03-28T09:21:29.844Z</time></trkpt><trkpt lat="42.1862946" lon="12.7373784"><ele>249.0</ele><time>2026-03-28T09:21:30.845Z</time></trkpt><trkpt lat="42.1862715" lon="12.7375447"><ele>249.0</ele><time>2026-03-28T09:21:31.846Z</time></trkpt><trkpt lat="42.1862613" lon="12.737714"><ele>249.0</ele><time>2026-03-28T09:21:32.843Z</time></trkpt><trkpt lat="42.1862631" lon="12.7378862"><ele>249.0</ele><time>2026-03-28T09:21:33.842Z</time></trkpt><trkpt lat="42.1862776" lon="12.7380544"><ele>249.0</ele><time>2026-03-28T09:21:34.854Z</time></trkpt><trkpt lat="42.1863129" lon="12.7382191"><ele>249.0</ele><time>2026-03-28T09:21:35.844Z</time></trkpt><trkpt lat="42.1863898" lon="12.7383698"><ele>249.0</ele><time>2026-03-28T09:21:36.847Z</time></trkpt><trkpt lat="42.1864723" lon="12.7385213"><ele>249.0</ele><time>2026-03-28T09:21:37.853Z</time></trkpt><trkpt lat="42.186549" lon="12.7386792"><ele>249.0</ele><time>2026-03-28T09:21:38.843Z</time></trkpt><trkpt lat="42.1866107" lon="12.7388452"><ele>249.0</ele><time>2026-03-28T09:21:39.843Z</time></trkpt><trkpt lat="42.1866782" lon="12.7390061"><ele>249.0</ele><time>2026-03-28T09:21:40.841Z</time></trkpt><trkpt lat="42.186745" lon="12.7391566"><ele>249.0</ele><time>2026-03-28T09:21:41.84Z</time></trkpt><trkpt lat="42.1868105" lon="12.739314"><ele>249.0</ele><time>2026-03-28T09:21:42.845Z</time></trkpt><trkpt lat="42.1868784" lon="12.7394741"><ele>249.25</ele><time>2026-03-28T09:21:43.841Z</time></trkpt><trkpt lat="42.1869423" lon="12.7396423"><ele>249.5</ele><time>2026-03-28T09:21:44.851Z</time></trkpt><trkpt lat="42.1869941" lon="12.7398027"><ele>249.75</ele><time>2026-03-28T09:21:45.857Z</time></trkpt><trkpt lat="42.1870247" lon="12.7399545"><ele>250.0</ele><time>2026-03-28T09:21:46.845Z</time></trkpt><trkpt lat="42.1870315" lon="12.7401201"><ele>250.25</ele><time>2026-03-28T09:21:47.85Z</time></trkpt><trkpt lat="42.1870198" lon="12.7403017"><ele>250.5</ele><time>2026-03-28T09:21:48.848Z</time></trkpt><trkpt lat="42.1870018" lon="12.7404911"><ele>250.75</ele><time>2026-03-28T09:21:49.843Z</time></trkpt><trkpt lat="42.1869812" lon="12.7406771"><ele>251.0</ele><time>2026-03-28T09:21:50.843Z</time></trkpt><trkpt lat="42.1869669" lon="12.740848"><ele>251.0</ele><time>2026-03-28T09:21:51.848Z</time></trkpt><trkpt lat="42.186965" lon="12.7410085"><ele>251.0</ele><time>2026-03-28T09:21:52.842Z</time></trkpt><trkpt lat="42.1869962" lon="12.7411654"><ele>251.0</ele><time>2026-03-28T09:21:53.847Z</time></trkpt><trkpt lat="42.1870602" lon="12.741323"><ele>251.0</ele><time>2026-03-28T09:21:54.849Z</time></trkpt><trkpt lat="42.187129" lon="12.7414804"><ele>251.75</ele><time>2026-03-28T09:21:55.846Z</time></trkpt><trkpt lat="42.187202" lon="12.7416299"><ele>252.5</ele><time>2026-03-28T09:21:56.85Z</time></trkpt><trkpt lat="42.187282" lon="12.7417965"><ele>253.25</ele><time>2026-03-28T09:21:57.848Z</time></trkpt><trkpt lat="42.1873639" lon="12.7419901"><ele>254.0</ele><time>2026-03-28T09:21:58.843Z</time></trkpt><trkpt lat="42.1874285" lon="12.7422045"><ele>254.0</ele><time>2026-03-28T09:21:59.857Z</time></trkpt><trkpt lat="42.1874723" lon="12.7424026"><ele>254.0</ele><time>2026-03-28T09:22:00.846Z</time></trkpt><trkpt lat="42.1875098" lon="12.7425717"><ele>254.0</ele><time>2026-03-28T09:22:01.847Z</time></trkpt><trkpt lat="42.1875734" lon="12.7426918"><ele>254.0</ele><time>2026-03-28T09:22:02.844Z</time></trkpt><trkpt lat="42.1876574" lon="12.7427507"><ele>254.0</ele><time>2026-03-28T09:22:03.851Z</time></trkpt><trkpt lat="42.1877619" lon="12.742755"><ele>254.0</ele><time>2026-03-28T09:22:04.854Z</time></trkpt><trkpt lat="42.1878875" lon="12.7427398"><ele>254.0</ele><time>2026-03-28T09:22:05.845Z</time></trkpt><trkpt lat="42.1880095" lon="12.742682"><ele>254.0</ele><time>2026-03-28T09:22:06.842Z</time></trkpt><trkpt lat="42.1881076" lon="12.7425956"><ele>253.75</ele><time>2026-03-28T09:22:07.845Z</time></trkpt><trkpt lat="42.188178" lon="12.7424808"><ele>253.5</ele><time>2026-03-28T09:22:08.84Z</time></trkpt><trkpt lat="42.188221" lon="12.7423221"><ele>253.25</ele><time>2026-03-28T09:22:09.845Z</time></trkpt><trkpt lat="42.1882569" lon="12.7421451"><ele>253.0</ele><time>2026-03-28T09:22:10.849Z</time></trkpt><trkpt lat="42.1883027" lon="12.7419894"><ele>253.0</ele><time>2026-03-28T09:22:11.837Z</time></trkpt><trkpt lat="42.1883697" lon="12.7418841"><ele>253.0</ele><time>2026-03-28T09:22:12.843Z</time></trkpt><trkpt lat="42.1884565" lon="12.7418048"><ele>253.0</ele><time>2026-03-28T09:22:13.851Z</time></trkpt><trkpt lat="42.1885679" lon="12.7417706"><ele>253.0</ele><time>2026-03-28T09:22:14.84Z</time></trkpt><trkpt lat="42.1886784" lon="12.741812"><ele>253.0</ele><time>2026-03-28T09:22:15.843Z</time></trkpt><trkpt lat="42.1887906" lon="12.7418938"><ele>253.0</ele><time>2026-03-28T09:22:16.841Z</time></trkpt><trkpt lat="42.1888964" lon="12.7420263"><ele>253.0</ele><time>2026-03-28T09:22:17.839Z</time></trkpt><trkpt lat="42.1890017" lon="12.7421833"><ele>253.0</ele><time>2026-03-28T09:22:18.842Z</time></trkpt><trkpt lat="42.1891017" lon="12.742338"><ele>253.33333333333331</ele><time>2026-03-28T09:22:19.843Z</time></trkpt><trkpt lat="42.1891867" lon="12.7425003"><ele>253.66666666666669</ele><time>2026-03-28T09:22:20.85Z</time></trkpt><trkpt lat="42.1892473" lon="12.742689"><ele>254.0</ele><time>2026-03-28T09:22:21.845Z</time></trkpt><trkpt lat="42.1892949" lon="12.7429056"><ele>254.0</ele><time>2026-03-28T09:22:22.848Z</time></trkpt><trkpt lat="42.1893263" lon="12.7431151"><ele>254.0</ele><time>2026-03-28T09:22:23.84Z</time></trkpt><trkpt lat="42.1893581" lon="12.7432989"><ele>254.0</ele><time>2026-03-28T09:22:24.838Z</time></trkpt><trkpt lat="42.1894018" lon="12.7434329"><ele>254.0</ele><time>2026-03-28T09:22:25.838Z</time></trkpt><trkpt lat="42.189464" lon="12.7435331"><ele>254.75</ele><time>2026-03-28T09:22:26.842Z</time></trkpt><trkpt lat="42.1895522" lon="12.7435784"><ele>255.5</ele><time>2026-03-28T09:22:27.845Z</time></trkpt><trkpt lat="42.1896647" lon="12.743607"><ele>256.25</ele><time>2026-03-28T09:22:28.851Z</time></trkpt><trkpt lat="42.1898098" lon="12.7436196"><ele>257.0</ele><time>2026-03-28T09:22:29.845Z</time></trkpt><trkpt lat="42.1899569" lon="12.7436065"><ele>257.0</ele><time>2026-03-28T09:22:30.845Z</time></trkpt><trkpt lat="42.1901027" lon="12.7436164"><ele>257.0</ele><time>2026-03-28T09:22:31.838Z</time></trkpt><trkpt lat="42.1902378" lon="12.7436389"><ele>257.0</ele><time>2026-03-28T09:22:32.846Z</time></trkpt><trkpt lat="42.190357" lon="12.7436764"><ele>257.0</ele><time>2026-03-28T09:22:33.842Z</time></trkpt><trkpt lat="42.1904591" lon="12.7437014"><ele>257.0</ele><time>2026-03-28T09:22:34.852Z</time></trkpt><trkpt lat="42.1905544" lon="12.7436712"><ele>257.0</ele><time>2026-03-28T09:22:35.843Z</time></trkpt><trkpt lat="42.190622" lon="12.7435895"><ele>257.0</ele><time>2026-03-28T09:22:36.849Z</time></trkpt><trkpt lat="42.1906516" lon="12.743448"><ele>257.0</ele><time>2026-03-28T09:22:37.858Z</time></trkpt><trkpt lat="42.1906606" lon="12.7432845"><ele>257.0</ele><time>2026-03-28T09:22:38.844Z</time></trkpt><trkpt lat="42.1906433" lon="12.7430863"><ele>256.75</ele><time>2026-03-28T09:22:39.841Z</time></trkpt><trkpt lat="42.190636" lon="12.7428933"><ele>256.5</ele><time>2026-03-28T09:22:40.839Z</time></trkpt><trkpt lat="42.1906497" lon="12.7427248"><ele>256.25</ele><time>2026-03-28T09:22:41.838Z</time></trkpt><trkpt lat="42.190697" lon="12.742564"><ele>256.0</ele><time>2026-03-28T09:22:42.84Z</time></trkpt><trkpt lat="42.1907481" lon="12.7423829"><ele>256.0</ele><time>2026-03-28T09:22:43.847Z</time></trkpt><trkpt lat="42.1907663" lon="12.7421805"><ele>256.0</ele><time>2026-03-28T09:22:44.849Z</time></trkpt><trkpt lat="42.1907739" lon="12.7419649"><ele>256.0</ele><time>2026-03-28T09:22:45.844Z</time></trkpt><trkpt lat="42.1907704" lon="12.7417612"><ele>255.0</ele><time>2026-03-28T09:22:46.847Z</time></trkpt><trkpt lat="42.1907549" lon="12.7415741"><ele>254.0</ele><time>2026-03-28T09:22:47.837Z</time></trkpt><trkpt lat="42.1907506" lon="12.7414085"><ele>253.0</ele><time>2026-03-28T09:22:48.845Z</time></trkpt><trkpt lat="42.1907672" lon="12.7412637"><ele>252.0</ele><time>2026-03-28T09:22:49.85Z</time></trkpt><trkpt lat="42.1908115" lon="12.741135"><ele>251.25</ele><time>2026-03-28T09:22:50.844Z</time></trkpt><trkpt lat="42.1908891" lon="12.7410169"><ele>250.5</ele><time>2026-03-28T09:22:51.85Z</time></trkpt><trkpt lat="42.1909985" lon="12.7409015"><ele>249.75</ele><time>2026-03-28T09:22:52.846Z</time></trkpt><trkpt lat="42.1911098" lon="12.7407837"><ele>249.0</ele><time>2026-03-28T09:22:53.841Z</time></trkpt><trkpt lat="42.1912155" lon="12.7406501"><ele>249.0</ele><time>2026-03-28T09:22:54.846Z</time></trkpt><trkpt lat="42.1913177" lon="12.7405168"><ele>249.0</ele><time>2026-03-28T09:22:55.845Z</time></trkpt><trkpt lat="42.1914237" lon="12.740404"><ele>249.0</ele><time>2026-03-28T09:22:56.846Z</time></trkpt><trkpt lat="42.1915498" lon="12.7403502"><ele>249.0</ele><time>2026-03-28T09:22:57.846Z</time></trkpt><trkpt lat="42.1916982" lon="12.7403209"><ele>249.25</ele><time>2026-03-28T09:22:58.85Z</time></trkpt><trkpt lat="42.1918502" lon="12.7403055"><ele>249.5</ele><time>2026-03-28T09:22:59.848Z</time></trkpt><trkpt lat="42.1919915" lon="12.7402724"><ele>249.75</ele><time>2026-03-28T09:23:00.848Z</time></trkpt><trkpt lat="42.1921181" lon="12.7401916"><ele>250.0</ele><time>2026-03-28T09:23:01.852Z</time></trkpt><trkpt lat="42.1922306" lon="12.7400739"><ele>250.0</ele><time>2026-03-28T09:23:02.841Z</time></trkpt><trkpt lat="42.1923343" lon="12.7399344"><ele>250.0</ele><time>2026-03-28T09:23:03.847Z</time></trkpt><trkpt lat="42.1924193" lon="12.7397606"><ele>250.0</ele><time>2026-03-28T09:23:04.844Z</time></trkpt><trkpt lat="42.1924764" lon="12.7395798"><ele>250.0</ele><time>2026-03-28T09:23:05.852Z</time></trkpt><trkpt lat="42.1925102" lon="12.7393608"><ele>252.0</ele><time>2026-03-28T09:23:06.843Z</time></trkpt><trkpt lat="42.1925216" lon="12.7391204"><ele>254.0</ele><time>2026-03-28T09:23:07.84Z</time></trkpt><trkpt lat="42.1925266" lon="12.7388642"><ele>256.0</ele><time>2026-03-28T09:23:08.849Z</time></trkpt><trkpt lat="42.1925285" lon="12.7386099"><ele>255.0</ele><time>2026-03-28T09:23:09.843Z</time></trkpt><trkpt lat="42.1925375" lon="12.7383662"><ele>254.0</ele><time>2026-03-28T09:23:10.848Z</time></trkpt><trkpt lat="42.192546" lon="12.7381474"><ele>253.0</ele><time>2026-03-28T09:23:11.841Z</time></trkpt><trkpt lat="42.1925495" lon="12.7379516"><ele>253.0</ele><time>2026-03-28T09:23:12.85Z</time></trkpt><trkpt lat="42.1925864" lon="12.7377889"><ele>253.0</ele><time>2026-03-28T09:23:13.847Z</time></trkpt><trkpt lat="42.1926462" lon="12.7376556"><ele>253.0</ele><time>2026-03-28T09:23:14.845Z</time></trkpt><trkpt lat="42.1927278" lon="12.7375654"><ele>253.0</ele><time>2026-03-28T09:23:15.847Z</time></trkpt><trkpt lat="42.1928319" lon="12.7375017"><ele>253.75</ele><time>2026-03-28T09:23:16.839Z</time></trkpt><trkpt lat="42.1929617" lon="12.7374889"><ele>254.5</ele><time>2026-03-28T09:23:17.846Z</time></trkpt><trkpt lat="42.1931059" lon="12.7375076"><ele>255.25</ele><time>2026-03-28T09:23:18.846Z</time></trkpt><trkpt lat="42.1932619" lon="12.7375458"><ele>256.0</ele><time>2026-03-28T09:23:19.842Z</time></trkpt><trkpt lat="42.1934235" lon="12.7375991"><ele>256.0</ele><time>2026-03-28T09:23:20.848Z</time></trkpt><trkpt lat="42.1935838" lon="12.7376538"><ele>256.0</ele><time>2026-03-28T09:23:21.845Z</time></trkpt><trkpt lat="42.1937351" lon="12.7377249"><ele>256.0</ele><time>2026-03-28T09:23:22.841Z</time></trkpt><trkpt lat="42.1938779" lon="12.7378254"><ele>258.0</ele><time>2026-03-28T09:23:23.844Z</time></trkpt><trkpt lat="42.1940211" lon="12.7379539"><ele>260.0</ele><time>2026-03-28T09:23:24.846Z</time></trkpt><trkpt lat="42.194155" lon="12.738107"><ele>262.0</ele><time>2026-03-28T09:23:25.844Z</time></trkpt><trkpt lat="42.1942691" lon="12.7382705"><ele>262.0</ele><time>2026-03-28T09:23:26.859Z</time></trkpt><trkpt lat="42.194361" lon="12.7384375"><ele>262.0</ele><time>2026-03-28T09:23:27.85Z</time></trkpt><trkpt lat="42.194442" lon="12.7385947"><ele>262.0</ele><time>2026-03-28T09:23:28.843Z</time></trkpt><trkpt lat="42.1945212" lon="12.7387195"><ele>262.0</ele><time>2026-03-28T09:23:29.836Z</time></trkpt><trkpt lat="42.1946075" lon="12.738804"><ele>261.2</ele><time>2026-03-28T09:23:30.847Z</time></trkpt><trkpt lat="42.1947024" lon="12.7388337"><ele>260.4</ele><time>2026-03-28T09:23:31.836Z</time></trkpt><trkpt lat="42.194799" lon="12.7388144"><ele>259.6</ele><time>2026-03-28T09:23:32.846Z</time></trkpt><trkpt lat="42.1948954" lon="12.7387451"><ele>258.8</ele><time>2026-03-28T09:23:33.844Z</time></trkpt><trkpt lat="42.1949894" lon="12.7386365"><ele>258.0</ele><time>2026-03-28T09:23:34.847Z</time></trkpt><trkpt lat="42.1950764" lon="12.7385006"><ele>258.0</ele><time>2026-03-28T09:23:35.84Z</time></trkpt><trkpt lat="42.1951462" lon="12.7383279"><ele>258.0</ele><time>2026-03-28T09:23:36.842Z</time></trkpt><trkpt lat="42.1952203" lon="12.7381465"><ele>258.0</ele><time>2026-03-28T09:23:37.847Z</time></trkpt><trkpt lat="42.1953099" lon="12.7379674"><ele>258.0</ele><time>2026-03-28T09:23:38.839Z</time></trkpt><trkpt lat="42.1953929" lon="12.7377775"><ele>258.0</ele><time>2026-03-28T09:23:39.842Z</time></trkpt><trkpt lat="42.1954752" lon="12.7375861"><ele>258.0</ele><time>2026-03-28T09:23:40.844Z</time></trkpt><trkpt lat="42.1955422" lon="12.7374182"><ele>259.0</ele><time>2026-03-28T09:23:41.841Z</time></trkpt><trkpt lat="42.1956046" lon="12.7372675"><ele>260.0</ele><time>2026-03-28T09:23:42.844Z</time></trkpt><trkpt lat="42.195672" lon="12.7371589"><ele>261.0</ele><time>2026-03-28T09:23:43.84Z</time></trkpt><trkpt lat="42.1957462" lon="12.7370954"><ele>262.0</ele><time>2026-03-28T09:23:44.846Z</time></trkpt><trkpt lat="42.1958337" lon="12.737062"><ele>263.0</ele><time>2026-03-28T09:23:45.843Z</time></trkpt><trkpt lat="42.195922" lon="12.7370577"><ele>263.0</ele><time>2026-03-28T09:23:46.845Z</time></trkpt><trkpt lat="42.1960214" lon="12.7370622"><ele>263.0</ele><time>2026-03-28T09:23:47.841Z</time></trkpt><trkpt lat="42.1961218" lon="12.7370728"><ele>263.0</ele><time>2026-03-28T09:23:48.841Z</time></trkpt><trkpt lat="42.1962233" lon="12.7370657"><ele>263.0</ele><time>2026-03-28T09:23:49.848Z</time></trkpt><trkpt lat="42.1963211" lon="12.7370445"><ele>263.0</ele><time>2026-03-28T09:23:50.855Z</time></trkpt><trkpt lat="42.196413" lon="12.7369853"><ele>263.0</ele><time>2026-03-28T09:23:51.844Z</time></trkpt><trkpt lat="42.1964783" lon="12.7368915"><ele>263.0</ele><time>2026-03-28T09:23:52.85Z</time></trkpt><trkpt lat="42.1965156" lon="12.7367572"><ele>263.0</ele><time>2026-03-28T09:23:53.845Z</time></trkpt><trkpt lat="42.19653" lon="12.7366012"><ele>263.0</ele><time>2026-03-28T09:23:54.844Z</time></trkpt><trkpt lat="42.1965331" lon="12.7364473"><ele>263.0</ele><time>2026-03-28T09:23:55.845Z</time></trkpt><trkpt lat="42.1965306" lon="12.7362943"><ele>263.4</ele><time>2026-03-28T09:23:56.847Z</time></trkpt><trkpt lat="42.1965438" lon="12.7361605"><ele>263.8</ele><time>2026-03-28T09:23:57.843Z</time></trkpt><trkpt lat="42.1965682" lon="12.7360362"><ele>264.2</ele><time>2026-03-28T09:23:58.847Z</time></trkpt><trkpt lat="42.1966045" lon="12.7359285"><ele>264.6</ele><time>2026-03-28T09:23:59.844Z</time></trkpt><trkpt lat="42.1966676" lon="12.7358344"><ele>265.0</ele><time>2026-03-28T09:24:00.842Z</time></trkpt><trkpt lat="42.1967467" lon="12.7357622"><ele>263.75</ele><time>2026-03-28T09:24:01.848Z</time></trkpt><trkpt lat="42.1968401" lon="12.7356971"><ele>262.5</ele><time>2026-03-28T09:24:02.841Z</time></trkpt><trkpt lat="42.1969375" lon="12.7356214"><ele>261.25</ele><time>2026-03-28T09:24:03.844Z</time></trkpt><trkpt lat="42.1970563" lon="12.7355444"><ele>260.0</ele><time>2026-03-28T09:24:04.848Z</time></trkpt><trkpt lat="42.1971973" lon="12.7354507"><ele>258.0</ele><time>2026-03-28T09:24:05.846Z</time></trkpt><trkpt lat="42.1973551" lon="12.735369"><ele>256.0</ele><time>2026-03-28T09:24:06.838Z</time></trkpt><trkpt lat="42.1975203" lon="12.7352871"><ele>254.0</ele><time>2026-03-28T09:24:07.849Z</time></trkpt><trkpt lat="42.1976972" lon="12.7352076"><ele>254.0</ele><time>2026-03-28T09:24:08.843Z</time></trkpt><trkpt lat="42.1978824" lon="12.7351292"><ele>254.0</ele><time>2026-03-28T09:24:09.84Z</time></trkpt><trkpt lat="42.1980687" lon="12.735045"><ele>254.0</ele><time>2026-03-28T09:24:10.845Z</time></trkpt><trkpt lat="42.1982484" lon="12.7349654"><ele>257.33333333333337</ele><time>2026-03-28T09:24:11.843Z</time></trkpt><trkpt lat="42.198418" lon="12.7349008"><ele>260.6666666666667</ele><time>2026-03-28T09:24:12.846Z</time></trkpt><trkpt lat="42.1985812" lon="12.7348433"><ele>264.0</ele><time>2026-03-28T09:24:13.846Z</time></trkpt><trkpt lat="42.1987242" lon="12.7347843"><ele>264.0</ele><time>2026-03-28T09:24:14.848Z</time></trkpt><trkpt lat="42.198849" lon="12.7346998"><ele>264.0</ele><time>2026-03-28T09:24:15.848Z</time></trkpt><trkpt lat="42.1989586" lon="12.7345826"><ele>264.0</ele><time>2026-03-28T09:24:16.847Z</time></trkpt><trkpt lat="42.1990357" lon="12.7344465"><ele>264.0</ele><time>2026-03-28T09:24:17.851Z</time></trkpt><trkpt lat="42.199065" lon="12.7342859"><ele>264.6666666666667</ele><time>2026-03-28T09:24:18.842Z</time></trkpt><trkpt lat="42.1990559" lon="12.7341035"><ele>265.33333333333337</ele><time>2026-03-28T09:24:19.843Z</time></trkpt><trkpt lat="42.1990244" lon="12.7338889"><ele>266.0</ele><time>2026-03-28T09:24:20.848Z</time></trkpt><trkpt lat="42.1989694" lon="12.7336584"><ele>260.33333333333337</ele><time>2026-03-28T09:24:21.841Z</time></trkpt><trkpt lat="42.1989086" lon="12.7334306"><ele>254.66666666666669</ele><time>2026-03-28T09:24:22.845Z</time></trkpt><trkpt lat="42.1988611" lon="12.733209"><ele>249.0</ele><time>2026-03-28T09:24:23.839Z</time></trkpt><trkpt lat="42.1988249" lon="12.7329862"><ele>249.0</ele><time>2026-03-28T09:24:24.844Z</time></trkpt><trkpt lat="42.1988063" lon="12.7327633"><ele>249.0</ele><time>2026-03-28T09:24:25.841Z</time></trkpt><trkpt lat="42.1988017" lon="12.7325434"><ele>249.0</ele><time>2026-03-28T09:24:26.844Z</time></trkpt><trkpt lat="42.1988089" lon="12.7323214"><ele>248.66666666666669</ele><time>2026-03-28T09:24:27.848Z</time></trkpt><trkpt lat="42.1988405" lon="12.7321133"><ele>248.33333333333334</ele><time>2026-03-28T09:24:28.844Z</time></trkpt><trkpt lat="42.1988999" lon="12.7319119"><ele>248.0</ele><time>2026-03-28T09:24:29.843Z</time></trkpt><trkpt lat="42.1989785" lon="12.7316899"><ele>252.0</ele><time>2026-03-28T09:24:30.841Z</time></trkpt><trkpt lat="42.1990762" lon="12.7314855"><ele>256.0</ele><time>2026-03-28T09:24:31.841Z</time></trkpt><trkpt lat="42.1991549" lon="12.73127"><ele>260.0</ele><time>2026-03-28T09:24:32.843Z</time></trkpt><trkpt lat="42.1992144" lon="12.7310374"><ele>260.0</ele><time>2026-03-28T09:24:33.847Z</time></trkpt><trkpt lat="42.1992728" lon="12.7307862"><ele>260.0</ele><time>2026-03-28T09:24:34.844Z</time></trkpt><trkpt lat="42.1993389" lon="12.7305249"><ele>260.0</ele><time>2026-03-28T09:24:35.843Z</time></trkpt><trkpt lat="42.1994021" lon="12.7302589"><ele>259.0</ele><time>2026-03-28T09:24:36.844Z</time></trkpt><trkpt lat="42.1994678" lon="12.7300087"><ele>258.0</ele><time>2026-03-28T09:24:37.842Z</time></trkpt><trkpt lat="42.199519" lon="12.7297689"><ele>257.0</ele><time>2026-03-28T09:24:38.841Z</time></trkpt><trkpt lat="42.1995672" lon="12.7295399"><ele>255.33333333333334</ele><time>2026-03-28T09:24:39.849Z</time></trkpt><trkpt lat="42.1995876" lon="12.7293182"><ele>253.66666666666669</ele><time>2026-03-28T09:24:40.842Z</time></trkpt><trkpt lat="42.1995814" lon="12.729101"><ele>252.0</ele><time>2026-03-28T09:24:41.85Z</time></trkpt><trkpt lat="42.1995432" lon="12.7288769"><ele>252.0</ele><time>2026-03-28T09:24:42.846Z</time></trkpt><trkpt lat="42.1994836" lon="12.7286711"><ele>252.0</ele><time>2026-03-28T09:24:43.841Z</time></trkpt><trkpt lat="42.1994289" lon="12.7284804"><ele>252.0</ele><time>2026-03-28T09:24:44.839Z</time></trkpt><trkpt lat="42.199407" lon="12.728302"><ele>252.0</ele><time>2026-03-28T09:24:45.853Z</time></trkpt><trkpt lat="42.1994215" lon="12.7281353"><ele>252.0</ele><time>2026-03-28T09:24:46.853Z</time></trkpt><trkpt lat="42.1994785" lon="12.727966"><ele>252.0</ele><time>2026-03-28T09:24:47.855Z</time></trkpt><trkpt lat="42.199552" lon="12.7277688"><ele>252.0</ele><time>2026-03-28T09:24:48.84Z</time></trkpt><trkpt lat="42.1996304" lon="12.7275538"><ele>254.33333333333331</ele><time>2026-03-28T09:24:49.839Z</time></trkpt><trkpt lat="42.1997068" lon="12.7273216"><ele>256.66666666666663</ele><time>2026-03-28T09:24:50.841Z</time></trkpt><trkpt lat="42.1997827" lon="12.7270965"><ele>259.0</ele><time>2026-03-28T09:24:51.84Z</time></trkpt><trkpt lat="42.1998684" lon="12.726871"><ele>259.0</ele><time>2026-03-28T09:24:52.851Z</time></trkpt><trkpt lat="42.1999558" lon="12.7266458"><ele>259.0</ele><time>2026-03-28T09:24:53.85Z</time></trkpt><trkpt lat="42.2000403" lon="12.7264256"><ele>259.0</ele><time>2026-03-28T09:24:54.84Z</time></trkpt><trkpt lat="42.2001231" lon="12.7262122"><ele>256.5</ele><time>2026-03-28T09:24:55.847Z</time></trkpt><trkpt lat="42.2001967" lon="12.7260207"><ele>254.0</ele><time>2026-03-28T09:24:56.843Z</time></trkpt><trkpt lat="42.2002723" lon="12.7258612"><ele>251.5</ele><time>2026-03-28T09:24:57.846Z</time></trkpt><trkpt lat="42.2003632" lon="12.7257353"><ele>249.0</ele><time>2026-03-28T09:24:58.846Z</time></trkpt><trkpt lat="42.2004736" lon="12.7256484"><ele>249.0</ele><time>2026-03-28T09:24:59.844Z</time></trkpt><trkpt lat="42.200586" lon="12.7256223"><ele>249.0</ele><time>2026-03-28T09:25:00.84Z</time></trkpt><trkpt lat="42.2006992" lon="12.7256441"><ele>249.0</ele><time>2026-03-28T09:25:01.837Z</time></trkpt><trkpt lat="42.2008139" lon="12.7257317"><ele>249.0</ele><time>2026-03-28T09:25:02.854Z</time></trkpt><trkpt lat="42.2009141" lon="12.7258401"><ele>254.0</ele><time>2026-03-28T09:25:03.847Z</time></trkpt><trkpt lat="42.2010126" lon="12.7259435"><ele>259.0</ele><time>2026-03-28T09:25:04.84Z</time></trkpt><trkpt lat="42.201164" lon="12.7259788"><ele>264.0</ele><time>2026-03-28T09:25:05.838Z</time></trkpt><trkpt lat="42.2013391" lon="12.7259882"><ele>263.0</ele><time>2026-03-28T09:25:06.845Z</time></trkpt><trkpt lat="42.2015107" lon="12.7260115"><ele>262.0</ele><time>2026-03-28T09:25:07.847Z</time></trkpt><trkpt lat="42.2016709" lon="12.7260314"><ele>261.0</ele><time>2026-03-28T09:25:08.837Z</time></trkpt><trkpt lat="42.2018389" lon="12.7260561"><ele>261.0</ele><time>2026-03-28T09:25:09.848Z</time></trkpt><trkpt lat="42.2020076" lon="12.7260599"><ele>261.0</ele><time>2026-03-28T09:25:10.839Z</time></trkpt><trkpt lat="42.202169" lon="12.7260353"><ele>261.0</ele><time>2026-03-28T09:25:11.852Z</time></trkpt><trkpt lat="42.2023319" lon="12.7259729"><ele>262.6666666666667</ele><time>2026-03-28T09:25:12.843Z</time></trkpt><trkpt lat="42.2024947" lon="12.7258916"><ele>264.33333333333337</ele><time>2026-03-28T09:25:13.837Z</time></trkpt><trkpt lat="42.2026432" lon="12.7258152"><ele>266.0</ele><time>2026-03-28T09:25:14.852Z</time></trkpt><trkpt lat="42.202781" lon="12.7257371"><ele>266.0</ele><time>2026-03-28T09:25:15.842Z</time></trkpt><trkpt lat="42.2029037" lon="12.7256288"><ele>266.0</ele><time>2026-03-28T09:25:16.844Z</time></trkpt><trkpt lat="42.2030091" lon="12.7254804"><ele>266.0</ele><time>2026-03-28T09:25:17.85Z</time></trkpt><trkpt lat="42.2030986" lon="12.7253153"><ele>265.0</ele><time>2026-03-28T09:25:18.842Z</time></trkpt><trkpt lat="42.2031833" lon="12.7251663"><ele>264.0</ele><time>2026-03-28T09:25:19.837Z</time></trkpt><trkpt lat="42.203287" lon="12.7250574"><ele>263.0</ele><time>2026-03-28T09:25:20.834Z</time></trkpt><trkpt lat="42.2034037" lon="12.7249954"><ele>262.0</ele><time>2026-03-28T09:25:21.841Z</time></trkpt><trkpt lat="42.2035374" lon="12.7249749"><ele>262.0</ele><time>2026-03-28T09:25:22.84Z</time></trkpt><trkpt lat="42.2036893" lon="12.7249937"><ele>262.0</ele><time>2026-03-28T09:25:23.846Z</time></trkpt><trkpt lat="42.2038491" lon="12.7250143"><ele>262.0</ele><time>2026-03-28T09:25:24.848Z</time></trkpt><trkpt lat="42.2039898" lon="12.7250313"><ele>264.6</ele><time>2026-03-28T09:25:25.837Z</time></trkpt><trkpt lat="42.2041069" lon="12.7250295"><ele>267.2</ele><time>2026-03-28T09:25:26.847Z</time></trkpt><trkpt lat="42.2041959" lon="12.7249863"><ele>269.8</ele><time>2026-03-28T09:25:27.845Z</time></trkpt><trkpt lat="42.204266" lon="12.7248783"><ele>272.4</ele><time>2026-03-28T09:25:28.844Z</time></trkpt><trkpt lat="42.2042927" lon="12.7247417"><ele>275.0</ele><time>2026-03-28T09:25:29.851Z</time></trkpt><trkpt lat="42.2042781" lon="12.7245804"><ele>275.0</ele><time>2026-03-28T09:25:30.85Z</time></trkpt><trkpt lat="42.2042429" lon="12.7244017"><ele>275.0</ele><time>2026-03-28T09:25:31.842Z</time></trkpt><trkpt lat="42.2041968" lon="12.7242101"><ele>275.0</ele><time>2026-03-28T09:25:32.84Z</time></trkpt><trkpt lat="42.2041517" lon="12.7240199"><ele>275.0</ele><time>2026-03-28T09:25:33.844Z</time></trkpt><trkpt lat="42.204101" lon="12.7238148"><ele>273.75</ele><time>2026-03-28T09:25:34.849Z</time></trkpt><trkpt lat="42.2040471" lon="12.7236169"><ele>272.5</ele><time>2026-03-28T09:25:35.844Z</time></trkpt><trkpt lat="42.2040131" lon="12.7234307"><ele>271.25</ele><time>2026-03-28T09:25:36.854Z</time></trkpt><trkpt lat="42.2039998" lon="12.7232611"><ele>270.0</ele><time>2026-03-28T09:25:37.846Z</time></trkpt><trkpt lat="42.2040183" lon="12.7231207"><ele>270.0</ele><time>2026-03-28T09:25:38.844Z</time></trkpt><trkpt lat="42.2040653" lon="12.7230133"><ele>270.0</ele><time>2026-03-28T09:25:39.848Z</time></trkpt><trkpt lat="42.2041439" lon="12.7229213"><ele>270.0</ele><time>2026-03-28T09:25:40.849Z</time></trkpt><trkpt lat="42.204242" lon="12.7228161"><ele>270.0</ele><time>2026-03-28T09:25:41.843Z</time></trkpt><trkpt lat="42.2043459" lon="12.7226952"><ele>268.75</ele><time>2026-03-28T09:25:42.849Z</time></trkpt><trkpt lat="42.2044426" lon="12.7225673"><ele>267.5</ele><time>2026-03-28T09:25:43.848Z</time></trkpt><trkpt lat="42.204538" lon="12.7224397"><ele>266.25</ele><time>2026-03-28T09:25:44.844Z</time></trkpt><trkpt lat="42.2046458" lon="12.7223162"><ele>265.0</ele><time>2026-03-28T09:25:45.843Z</time></trkpt><trkpt lat="42.2047501" lon="12.7221973"><ele>267.25</ele><time>2026-03-28T09:25:46.851Z</time></trkpt><trkpt lat="42.2048609" lon="12.7220983"><ele>269.5</ele><time>2026-03-28T09:25:47.847Z</time></trkpt><trkpt lat="42.2049753" lon="12.7220217"><ele>271.75</ele><time>2026-03-28T09:25:48.845Z</time></trkpt><trkpt lat="42.2050944" lon="12.7219814"><ele>274.0</ele><time>2026-03-28T09:25:49.847Z</time></trkpt><trkpt lat="42.2052184" lon="12.7219701"><ele>274.0</ele><time>2026-03-28T09:25:50.846Z</time></trkpt><trkpt lat="42.2053483" lon="12.7219828"><ele>274.0</ele><time>2026-03-28T09:25:51.84Z</time></trkpt><trkpt lat="42.2054726" lon="12.7220074"><ele>274.0</ele><time>2026-03-28T09:25:52.849Z</time></trkpt><trkpt lat="42.2055923" lon="12.7220778"><ele>274.0</ele><time>2026-03-28T09:25:53.849Z</time></trkpt><trkpt lat="42.2057047" lon="12.7221757"><ele>274.25</ele><time>2026-03-28T09:25:54.843Z</time></trkpt><trkpt lat="42.205816" lon="12.7222887"><ele>274.5</ele><time>2026-03-28T09:25:55.845Z</time></trkpt><trkpt lat="42.2059324" lon="12.7223956"><ele>274.75</ele><time>2026-03-28T09:25:56.847Z</time></trkpt><trkpt lat="42.2060424" lon="12.7224784"><ele>275.0</ele><time>2026-03-28T09:25:57.842Z</time></trkpt><trkpt lat="42.2061417" lon="12.7225335"><ele>275.0</ele><time>2026-03-28T09:25:58.841Z</time></trkpt><trkpt lat="42.2062323" lon="12.7225546"><ele>275.0</ele><time>2026-03-28T09:25:59.845Z</time></trkpt><trkpt lat="42.2063047" lon="12.7225561"><ele>275.0</ele><time>2026-03-28T09:26:00.843Z</time></trkpt><trkpt lat="42.2064073" lon="12.7225622"><ele>275.0</ele><time>2026-03-28T09:26:02.844Z</time></trkpt><trkpt lat="42.2065035" lon="12.7225763"><ele>275.0</ele><time>2026-03-28T09:26:04.843Z</time></trkpt><trkpt lat="42.2065697" lon="12.7225917"><ele>275.0</ele><time>2026-03-28T09:26:05.84Z</time></trkpt><trkpt lat="42.2066496" lon="12.7226419"><ele>273.0</ele><time>2026-03-28T09:26:06.846Z</time></trkpt><trkpt lat="42.2067459" lon="12.7227053"><ele>271.0</ele><time>2026-03-28T09:26:07.843Z</time></trkpt><trkpt lat="42.2068469" lon="12.7227822"><ele>269.0</ele><time>2026-03-28T09:26:08.84Z</time></trkpt><trkpt lat="42.2069491" lon="12.722857"><ele>267.0</ele><time>2026-03-28T09:26:09.85Z</time></trkpt><trkpt lat="42.2070583" lon="12.7229473"><ele>270.75</ele><time>2026-03-28T09:26:10.841Z</time></trkpt><trkpt lat="42.207182" lon="12.7230449"><ele>274.5</ele><time>2026-03-28T09:26:11.846Z</time></trkpt><trkpt lat="42.2073144" lon="12.7231275"><ele>278.25</ele><time>2026-03-28T09:26:12.842Z</time></trkpt><trkpt lat="42.2074491" lon="12.7232064"><ele>282.0</ele><time>2026-03-28T09:26:13.837Z</time></trkpt><trkpt lat="42.2075946" lon="12.7232833"><ele>282.0</ele><time>2026-03-28T09:26:14.854Z</time></trkpt><trkpt lat="42.2077449" lon="12.7233623"><ele>282.0</ele><time>2026-03-28T09:26:15.847Z</time></trkpt><trkpt lat="42.2079016" lon="12.723427"><ele>282.0</ele><time>2026-03-28T09:26:16.839Z</time></trkpt><trkpt lat="42.2080597" lon="12.7234574"><ele>282.0</ele><time>2026-03-28T09:26:17.844Z</time></trkpt><trkpt lat="42.2082194" lon="12.7234596"><ele>282.0</ele><time>2026-03-28T09:26:18.843Z</time></trkpt><trkpt lat="42.2083825" lon="12.723453"><ele>282.0</ele><time>2026-03-28T09:26:19.84Z</time></trkpt><trkpt lat="42.208546" lon="12.7234516"><ele>282.0</ele><time>2026-03-28T09:26:20.838Z</time></trkpt><trkpt lat="42.2087154" lon="12.7234514"><ele>282.0</ele><time>2026-03-28T09:26:21.843Z</time></trkpt><trkpt lat="42.2088826" lon="12.7234527"><ele>282.0</ele><time>2026-03-28T09:26:22.842Z</time></trkpt><trkpt lat="42.2090513" lon="12.7234639"><ele>284.0</ele><time>2026-03-28T09:26:23.842Z</time></trkpt><trkpt lat="42.2092191" lon="12.723476"><ele>286.0</ele><time>2026-03-28T09:26:24.844Z</time></trkpt><trkpt lat="42.2093838" lon="12.7234974"><ele>288.0</ele><time>2026-03-28T09:26:25.846Z</time></trkpt><trkpt lat="42.2095427" lon="12.7235287"><ele>295.6666666666667</ele><time>2026-03-28T09:26:26.847Z</time></trkpt><trkpt lat="42.2096971" lon="12.7235692"><ele>303.33333333333337</ele><time>2026-03-28T09:26:27.845Z</time></trkpt><trkpt lat="42.209855" lon="12.7236195"><ele>311.0</ele><time>2026-03-28T09:26:28.844Z</time></trkpt><trkpt lat="42.2100226" lon="12.7236733"><ele>311.0</ele><time>2026-03-28T09:26:29.843Z</time></trkpt><trkpt lat="42.2102025" lon="12.7237224"><ele>311.0</ele><time>2026-03-28T09:26:30.843Z</time></trkpt><trkpt lat="42.21039" lon="12.7237715"><ele>311.0</ele><time>2026-03-28T09:26:31.843Z</time></trkpt><trkpt lat="42.2105802" lon="12.72381"><ele>311.0</ele><time>2026-03-28T09:26:32.846Z</time></trkpt><trkpt lat="42.2107632" lon="12.7238518"><ele>311.0</ele><time>2026-03-28T09:26:33.848Z</time></trkpt><trkpt lat="42.2109383" lon="12.7238954"><ele>311.0</ele><time>2026-03-28T09:26:34.848Z</time></trkpt><trkpt lat="42.2111018" lon="12.7239324"><ele>311.0</ele><time>2026-03-28T09:26:35.846Z</time></trkpt><trkpt lat="42.2112501" lon="12.7239626"><ele>311.0</ele><time>2026-03-28T09:26:36.841Z</time></trkpt><trkpt lat="42.2113904" lon="12.7239985"><ele>311.0</ele><time>2026-03-28T09:26:37.848Z</time></trkpt><trkpt lat="42.2115112" lon="12.7240191"><ele>311.0</ele><time>2026-03-28T09:26:38.845Z</time></trkpt><trkpt lat="42.2116158" lon="12.7240389"><ele>311.5</ele><time>2026-03-28T09:26:39.845Z</time></trkpt><trkpt lat="42.2117123" lon="12.7240595"><ele>312.0</ele><time>2026-03-28T09:26:40.837Z</time></trkpt><trkpt lat="42.211798" lon="12.7240631"><ele>312.5</ele><time>2026-03-28T09:26:41.841Z</time></trkpt><trkpt lat="42.2118701" lon="12.7240319"><ele>313.0</ele><time>2026-03-28T09:26:42.846Z</time></trkpt><trkpt lat="42.21192" lon="12.7239534"><ele>313.5</ele><time>2026-03-28T09:26:43.848Z</time></trkpt><trkpt lat="42.2119361" lon="12.7238337"><ele>314.0</ele><time>2026-03-28T09:26:44.841Z</time></trkpt><trkpt lat="42.2119262" lon="12.7236978"><ele>314.0</ele><time>2026-03-28T09:26:45.849Z</time></trkpt><trkpt lat="42.2118876" lon="12.7235694"><ele>314.0</ele><time>2026-03-28T09:26:46.852Z</time></trkpt><trkpt lat="42.2118287" lon="12.7234403"><ele>314.0</ele><time>2026-03-28T09:26:47.837Z</time></trkpt><trkpt lat="42.211753" lon="12.7233077"><ele>314.0</ele><time>2026-03-28T09:26:48.849Z</time></trkpt><trkpt lat="42.2116619" lon="12.7231745"><ele>313.4</ele><time>2026-03-28T09:26:49.846Z</time></trkpt><trkpt lat="42.2115691" lon="12.7230468"><ele>312.79999999999995</ele><time>2026-03-28T09:26:50.84Z</time></trkpt><trkpt lat="42.2114897" lon="12.7229314"><ele>312.20000000000005</ele><time>2026-03-28T09:26:51.855Z</time></trkpt><trkpt lat="42.2114333" lon="12.7228432"><ele>311.6</ele><time>2026-03-28T09:26:52.843Z</time></trkpt><trkpt lat="42.2114052" lon="12.722763"><ele>311.0</ele><time>2026-03-28T09:26:53.842Z</time></trkpt><trkpt lat="42.2114395" lon="12.7226388"><ele>311.0</ele><time>2026-03-28T09:26:55.844Z</time></trkpt><trkpt lat="42.2115051" lon="12.722641"><ele>311.0</ele><time>2026-03-28T09:26:56.854Z</time></trkpt><trkpt lat="42.2115666" lon="12.7226908"><ele>311.0</ele><time>2026-03-28T09:26:57.846Z</time></trkpt><trkpt lat="42.2116351" lon="12.7227855"><ele>311.0</ele><time>2026-03-28T09:26:58.843Z</time></trkpt><trkpt lat="42.2116824" lon="12.7229161"><ele>311.0</ele><time>2026-03-28T09:26:59.846Z</time></trkpt><trkpt lat="42.211765" lon="12.7230371"><ele>311.0</ele><time>2026-03-28T09:27:00.843Z</time></trkpt><trkpt lat="42.2118648" lon="12.7231648"><ele>311.0</ele><time>2026-03-28T09:27:01.836Z</time></trkpt><trkpt lat="42.2119755" lon="12.7233206"><ele>311.0</ele><time>2026-03-28T09:27:02.841Z</time></trkpt><trkpt lat="42.2120843" lon="12.7234978"><ele>312.0</ele><time>2026-03-28T09:27:03.845Z</time></trkpt><trkpt lat="42.2121807" lon="12.723688"><ele>313.0</ele><time>2026-03-28T09:27:04.847Z</time></trkpt><trkpt lat="42.2122689" lon="12.7238816"><ele>314.0</ele><time>2026-03-28T09:27:05.847Z</time></trkpt><trkpt lat="42.2123557" lon="12.7240745"><ele>318.6666666666667</ele><time>2026-03-28T09:27:06.839Z</time></trkpt><trkpt lat="42.2124475" lon="12.724256"><ele>323.3333333333333</ele><time>2026-03-28T09:27:07.843Z</time></trkpt><trkpt lat="42.212549" lon="12.7244331"><ele>328.0</ele><time>2026-03-28T09:27:08.846Z</time></trkpt><trkpt lat="42.2126493" lon="12.7245986"><ele>328.59999999999997</ele><time>2026-03-28T09:27:09.846Z</time></trkpt><trkpt lat="42.212731" lon="12.7247488"><ele>329.2</ele><time>2026-03-28T09:27:10.844Z</time></trkpt><trkpt lat="42.2127916" lon="12.7248665"><ele>329.8</ele><time>2026-03-28T09:27:11.84Z</time></trkpt><trkpt lat="42.2128225" lon="12.7249767"><ele>330.4</ele><time>2026-03-28T09:27:12.847Z</time></trkpt><trkpt lat="42.2128129" lon="12.725084"><ele>331.0</ele><time>2026-03-28T09:27:13.841Z</time></trkpt><trkpt lat="42.2127511" lon="12.725143"><ele>331.0</ele><time>2026-03-28T09:27:14.838Z</time></trkpt><trkpt lat="42.2126626" lon="12.7251681"><ele>331.0</ele><time>2026-03-28T09:27:15.849Z</time></trkpt><trkpt lat="42.2125553" lon="12.7251505"><ele>331.0</ele><time>2026-03-28T09:27:16.839Z</time></trkpt><trkpt lat="42.2124153" lon="12.7251037"><ele>331.0</ele><time>2026-03-28T09:27:17.843Z</time></trkpt><trkpt lat="42.2122722" lon="12.7250581"><ele>333.66666666666663</ele><time>2026-03-28T09:27:18.842Z</time></trkpt><trkpt lat="42.2121145" lon="12.7250092"><ele>336.3333333333333</ele><time>2026-03-28T09:27:19.846Z</time></trkpt><trkpt lat="42.2119601" lon="12.7249426"><ele>339.0</ele><time>2026-03-28T09:27:20.853Z</time></trkpt><trkpt lat="42.2118161" lon="12.7248723"><ele>339.0</ele><time>2026-03-28T09:27:21.84Z</time></trkpt><trkpt lat="42.2116992" lon="12.7248164"><ele>339.0</ele><time>2026-03-28T09:27:22.843Z</time></trkpt><trkpt lat="42.2116029" lon="12.7248073"><ele>339.0</ele><time>2026-03-28T09:27:23.844Z</time></trkpt><trkpt lat="42.2115352" lon="12.7248437"><ele>339.0</ele><time>2026-03-28T09:27:24.841Z</time></trkpt><trkpt lat="42.2115124" lon="12.7249259"><ele>339.0</ele><time>2026-03-28T09:27:25.847Z</time></trkpt><trkpt lat="42.2115339" lon="12.7250239"><ele>339.0</ele><time>2026-03-28T09:27:26.85Z</time></trkpt><trkpt lat="42.2115868" lon="12.7250806"><ele>339.0</ele><time>2026-03-28T09:27:27.847Z</time></trkpt><trkpt lat="42.2116861" lon="12.7251216"><ele>339.0</ele><time>2026-03-28T09:27:28.839Z</time></trkpt><trkpt lat="42.2117976" lon="12.7251524"><ele>339.0</ele><time>2026-03-28T09:27:29.84Z</time></trkpt><trkpt lat="42.2119174" lon="12.725193"><ele>339.0</ele><time>2026-03-28T09:27:30.843Z</time></trkpt><trkpt lat="42.2120544" lon="12.7252709"><ele>342.0</ele><time>2026-03-28T09:27:31.841Z</time></trkpt><trkpt lat="42.2122021" lon="12.7253783"><ele>345.0</ele><time>2026-03-28T09:27:32.848Z</time></trkpt><trkpt lat="42.2123416" lon="12.7254867"><ele>348.0</ele><time>2026-03-28T09:27:33.855Z</time></trkpt><trkpt lat="42.2124665" lon="12.7255868"><ele>348.0</ele><time>2026-03-28T09:27:34.843Z</time></trkpt><trkpt lat="42.2125918" lon="12.725703"><ele>348.0</ele><time>2026-03-28T09:27:35.84Z</time></trkpt><trkpt lat="42.2127216" lon="12.7258272"><ele>348.0</ele><time>2026-03-28T09:27:36.845Z</time></trkpt><trkpt lat="42.2128545" lon="12.7259583"><ele>350.6666666666667</ele><time>2026-03-28T09:27:37.842Z</time></trkpt><trkpt lat="42.212984" lon="12.7260929"><ele>353.33333333333337</ele><time>2026-03-28T09:27:38.844Z</time></trkpt><trkpt lat="42.2131155" lon="12.7262309"><ele>356.0</ele><time>2026-03-28T09:27:39.839Z</time></trkpt><trkpt lat="42.2132431" lon="12.7263761"><ele>356.0</ele><time>2026-03-28T09:27:40.847Z</time></trkpt><trkpt lat="42.2133724" lon="12.7265235"><ele>356.0</ele><time>2026-03-28T09:27:41.845Z</time></trkpt><trkpt lat="42.213497" lon="12.7266627"><ele>356.0</ele><time>2026-03-28T09:27:42.843Z</time></trkpt><trkpt lat="42.2136149" lon="12.7267962"><ele>357.25</ele><time>2026-03-28T09:27:43.845Z</time></trkpt><trkpt lat="42.2137264" lon="12.726926"><ele>358.5</ele><time>2026-03-28T09:27:44.847Z</time></trkpt><trkpt lat="42.2138339" lon="12.7270485"><ele>359.75</ele><time>2026-03-28T09:27:45.844Z</time></trkpt><trkpt lat="42.2139276" lon="12.7271491"><ele>361.0</ele><time>2026-03-28T09:27:46.843Z</time></trkpt><trkpt lat="42.2140128" lon="12.7272388"><ele>361.0</ele><time>2026-03-28T09:27:47.847Z</time></trkpt><trkpt lat="42.2140764" lon="12.7273179"><ele>361.0</ele><time>2026-03-28T09:27:48.844Z</time></trkpt><trkpt lat="42.2141277" lon="12.7273731"><ele>361.0</ele><time>2026-03-28T09:27:49.845Z</time></trkpt><trkpt lat="42.2141647" lon="12.7275012"><ele>361.0</ele><time>2026-03-28T09:27:51.845Z</time></trkpt><trkpt lat="42.2141304" lon="12.7276474"><ele>361.0</ele><time>2026-03-28T09:27:53.847Z</time></trkpt><trkpt lat="42.214082" lon="12.727745"><ele>360.0</ele><time>2026-03-28T09:27:55.85Z</time></trkpt></trkseg></trk></gpx>